M I D A S
Marine Information and Data Acquisition System
Tripno 1897 of the Zeeleeuw from 2010-06-09 06:11:34 to 2010-06-09 17:16:18
Back to CruiseResearch ActivitiesStationsMapUnderway DataData graphs

EquipmentUnitsComment
TimeDGPSUTC
LatitudeDGPSDM.mWGS84
LongitudeDGPSDM.mWGS84
TemperatureSBE03/SBE38deg celciusITS90
ConductivitySBE21S/mITS90
SalinitySBE21 Practical Salinity Units
ChlorophylAChelsea fluorimeterg/lCalibrated in Aceton
Missing or incorrect values are displayed as -999
Sea surface data collected by the RV Zeeleeuw from 2010-06-09 06:11:27 to 2010-06-09 17:31:48
                                                                                    Next 1000 lines
Time Latitude Longitude Temperature Conductivity Salinity ChlorophylA
2010-06-09 06:11:37 51°13.663 2°55.957 21.4297 0.291385 1.622543 -1.000568
2010-06-09 06:11:42 51°13.663 2°55.957 21.4285 0.291385 1.622543 -1.000568
2010-06-09 06:11:47 51°13.663 2°55.957 21.4285 0.291385 1.622569 -1.000568
2010-06-09 06:11:52 51°13.663 2°55.957 21.4266 0.291385 1.622543 -1.000568
2010-06-09 06:11:57 51°13.663 2°55.957 21.4272 0.291385 1.622569 -1.000568
2010-06-09 06:12:02 51°13.663 2°55.958 21.4275 0.291385 1.622569 -1.000568
2010-06-09 06:12:07 51°13.663 2°55.958 21.4276 0.291385 1.622543 -1.000568
2010-06-09 06:12:12 51°13.662 2°55.958 21.4274 0.291385 1.622594 -1.035392
2010-06-09 06:12:17 51°13.662 2°55.959 21.4268 0.291385 1.622594 -1.035392
2010-06-09 06:12:22 51°13.662 2°55.959 21.428 0.291385 1.622594 -1.000568
2010-06-09 06:12:27 51°13.662 2°55.959 21.4285 0.291385 1.622594 -1.000568
2010-06-09 06:12:32 51°13.662 2°55.959 21.4272 0.291385 1.622594 -1.000568
2010-06-09 06:12:37 51°13.662 2°55.959 21.4277 0.291385 1.622594 -1.000568
2010-06-09 06:12:42 51°13.662 2°55.959 21.4267 0.291385 1.622569 -1.035392
2010-06-09 06:12:47 51°13.662 2°55.959 21.4284 0.291385 1.622594 -1.000568
2010-06-09 06:12:52 51°13.662 2°55.959 21.4288 0.291385 1.622569 -1.000568
2010-06-09 06:12:57 51°13.662 2°55.959 21.4301 0.291385 1.622594 -1.000568
2010-06-09 06:13:02 51°13.662 2°55.959 21.4305 0.291385 1.622594 -1.000568
2010-06-09 06:13:06 51°13.662 2°55.959 21.4387 0.291385 1.622594 -1.035392
2010-06-09 06:13:12 51°13.662 2°55.959 21.4743 0.291385 1.622594 -1.000568
2010-06-09 06:13:17 51°13.662 2°55.96 21.4754 0.291385 1.622644 -1.000568
2010-06-09 06:13:22 51°13.662 2°55.959 21.4733 0.291385 1.622619 -1.000568
2010-06-09 06:13:27 51°13.662 2°55.959 21.4696 0.291385 1.622619 -1.035392
2010-06-09 06:13:32 51°13.662 2°55.959 21.4697 0.291385 1.622619 -1.035392
2010-06-09 06:13:37 51°13.662 2°55.96 21.4692 0.291385 1.622594 -1.035392
2010-06-09 06:13:42 51°13.662 2°55.96 21.4675 0.291385 1.622619 -1.000568
2010-06-09 06:13:47 51°13.662 2°55.96 21.4659 0.291385 1.622619 -1.000568
2010-06-09 06:13:52 51°13.662 2°55.959 21.4673 0.291385 1.622644 -1.035392
2010-06-09 06:13:57 51°13.662 2°55.96 21.468 0.291385 1.622644 -1.000568
2010-06-09 06:14:02 51°13.661 2°55.96 21.468 0.291385 1.622644 -1.000568
2010-06-09 06:14:07 51°13.661 2°55.959 21.4684 0.291385 1.622695 -1.000568
2010-06-09 06:14:12 51°13.661 2°55.959 21.4687 0.291385 1.62267 -1.000568
2010-06-09 06:14:17 51°13.661 2°55.959 21.47 0.291385 1.622695 -1.000568
2010-06-09 06:14:22 51°13.661 2°55.959 21.4709 0.291385 1.62267 -1.035392
2010-06-09 06:14:26 51°13.661 2°55.959 21.468 0.291385 1.62267 -1.000568
2010-06-09 06:14:32 51°13.661 2°55.959 21.4626 0.291385 1.62267 -1.000568
2010-06-09 06:14:37 51°13.661 2°55.959 21.4382 0.291385 1.622644 -1.000568
2010-06-09 06:14:42 51°13.661 2°55.959 21.3914 0.291385 1.62267 -1.000568
2010-06-09 06:14:47 51°13.661 2°55.959 21.4015 0.291385 1.62267 -1.035392
2010-06-09 06:14:52 51°13.662 2°55.956 21.2148 0.291385 1.62272 -1.035392
2010-06-09 06:14:57 51°13.663 2°55.953 21.3829 0.291385 1.622644 -1.000568
2010-06-09 06:15:02 51°13.664 2°55.947 21.3798 0.291385 1.622644 -1.000568
2010-06-09 06:15:08 51°13.666 2°55.94 21.376 0.291385 1.622594 -1.000568
2010-06-09 06:15:13 51°13.668 2°55.932 21.3946 0.291385 1.622594 -1.035392
2010-06-09 06:15:19 51°13.67 2°55.923 21.394 0.291385 1.622569 -1.035392
2010-06-09 06:15:25 51°13.673 2°55.914 21.3972 0.291385 1.622644 -1.000568
2010-06-09 06:15:30 51°13.674 2°55.905 21.3997 0.291385 1.62272 -1.035392
2010-06-09 06:15:36 51°13.676 2°55.895 21.3938 0.291385 1.62272 -1.035392
2010-06-09 06:15:41 51°13.678 2°55.885 21.4125 0.291385 1.622771 -1.035392
2010-06-09 06:15:46 51°13.679 2°55.875 21.4389 0.291385 1.622821 -1.035392
2010-06-09 06:15:51 51°13.68 2°55.866 21.4251 0.291385 1.622821 -1.000568
2010-06-09 06:15:56 51°13.682 2°55.857 21.4238 0.291385 1.622745 -1.000568
2010-06-09 06:16:01 51°13.683 2°55.848 21.4287 0.291385 1.62272 -1.000568
2010-06-09 06:16:06 51°13.684 2°55.839 21.433 0.291385 1.62272 -1.000568
2010-06-09 06:16:10 51°13.685 2°55.833 21.4296 0.291385 1.622695 -1.000568
2010-06-09 06:16:15 51°13.686 2°55.824 21.4272 0.291385 1.622619 -1.035392
2010-06-09 06:16:20 51°13.686 2°55.816 21.4301 0.291385 1.622619 -1.000568
2010-06-09 06:16:25 51°13.687 2°55.809 21.4323 0.291385 1.622644 -1.035392
2010-06-09 06:16:30 51°13.687 2°55.801 21.4249 0.291385 1.622695 -1.000568
2010-06-09 06:16:35 51°13.687 2°55.794 21.4247 0.291385 1.622695 -1.000568
2010-06-09 06:16:40 51°13.688 2°55.788 21.4297 0.291385 1.62272 -1.035392
2010-06-09 06:16:45 51°13.688 2°55.783 21.4349 0.291385 1.622745 -0.965744
2010-06-09 06:16:49 51°13.688 2°55.78 21.4431 0.291385 1.622745 -1.035392
2010-06-09 06:16:54 51°13.688 2°55.777 21.4466 0.291385 1.622745 -1.000568
2010-06-09 06:16:59 51°13.688 2°55.774 21.4424 0.291385 1.62272 -1.035392
2010-06-09 06:17:04 51°13.688 2°55.773 21.4417 0.291385 1.62272 -1.035392
2010-06-09 06:17:09 51°13.689 2°55.771 21.4417 0.291385 1.62272 -1.035392
2010-06-09 06:17:14 51°13.689 2°55.77 21.4401 0.291385 1.622695 -1.000568
2010-06-09 06:17:18 51°13.69 2°55.77 21.4392 0.291385 1.62272 -1.035392
2010-06-09 06:17:23 51°13.69 2°55.769 21.4383 0.291385 1.62272 -1.000568
2010-06-09 06:17:28 51°13.691 2°55.769 21.4378 0.291385 1.622745 -1.035392
2010-06-09 06:17:33 51°13.692 2°55.769 21.4398 0.291385 1.622745 -1.035392
2010-06-09 06:17:38 51°13.692 2°55.768 21.4388 0.291385 1.622796 -1.000568
2010-06-09 06:17:42 51°13.692 2°55.767 21.4373 0.291385 1.622821 -1.000568
2010-06-09 06:17:47 51°13.693 2°55.766 21.4133 0.291385 1.622821 -1.000568
2010-06-09 06:17:52 51°13.693 2°55.765 21.4207 0.291385 1.622821 -1.035392
2010-06-09 06:17:57 51°13.692 2°55.763 21.412 0.291385 1.622796 -1.000568
2010-06-09 06:18:02 51°13.692 2°55.761 21.4081 0.291385 1.622796 -1.000568
2010-06-09 06:18:07 51°13.691 2°55.759 21.4165 0.291385 1.622821 -1.035392
2010-06-09 06:18:12 51°13.69 2°55.757 21.4344 0.291385 1.622821 -1.035392
2010-06-09 06:18:17 51°13.689 2°55.755 21.4395 0.291385 1.622847 -1.000568
2010-06-09 06:18:22 51°13.688 2°55.754 21.4353 0.291385 1.622796 -1.000568
2010-06-09 06:18:27 51°13.687 2°55.752 21.4366 0.291385 1.622821 -1.035392
2010-06-09 06:18:32 51°13.686 2°55.751 21.4435 0.291385 1.622821 -1.035392
2010-06-09 06:18:37 51°13.686 2°55.749 21.445 0.291385 1.622796 -1.000568
2010-06-09 06:18:43 51°13.686 2°55.749 21.4466 0.291385 1.622847 -1.000568
2010-06-09 06:18:48 51°13.687 2°55.748 21.4472 0.291385 1.622847 -1.000568
2010-06-09 06:18:54 51°13.687 2°55.747 21.4461 0.291385 1.622872 -1.000568
2010-06-09 06:18:59 51°13.688 2°55.747 21.4477 0.291385 1.622821 -1.070216
2010-06-09 06:19:04 51°13.69 2°55.746 21.4512 0.291385 1.622821 -1.070216
2010-06-09 06:19:08 51°13.691 2°55.746 21.4619 0.291385 1.622872 -1.000568
2010-06-09 06:19:13 51°13.693 2°55.745 21.4728 0.291385 1.622872 -1.000568
2010-06-09 06:19:18 51°13.695 2°55.744 21.4762 0.291385 1.622872 -1.000568
2010-06-09 06:19:23 51°13.698 2°55.743 21.4921 0.291385 1.622897 -1.000568
2010-06-09 06:19:28 51°13.701 2°55.741 21.4973 0.291385 1.622922 -1.000568
2010-06-09 06:19:33 51°13.704 2°55.739 21.4983 0.291385 1.622922 -1.000568
2010-06-09 06:19:37 51°13.707 2°55.736 21.4854 0.291385 1.622922 -1.000568
2010-06-09 06:19:42 51°13.711 2°55.733 21.4724 0.291385 1.622897 -1.000568
2010-06-09 06:19:47 51°13.716 2°55.729 21.4669 0.291385 1.622872 -1.035392
2010-06-09 06:19:52 51°13.721 2°55.724 21.4602 0.291385 1.622821 -1.000568
2010-06-09 06:19:57 51°13.726 2°55.719 21.4587 0.291385 1.622847 -1.000568
2010-06-09 06:20:02 51°13.732 2°55.714 21.4562 0.291385 1.622847 -1.000568
2010-06-09 06:20:06 51°13.737 2°55.709 21.4432 0.291385 1.622821 -1.000568
2010-06-09 06:20:12 51°13.746 2°55.703 21.4278 0.291385 1.622847 -1.035392
2010-06-09 06:20:17 51°13.754 2°55.696 21.4009 0.291385 1.622872 -1.000568
2010-06-09 06:20:22 51°13.761 2°55.69 21.3785 0.291385 1.622872 -1.000568
2010-06-09 06:20:27 51°13.77 2°55.683 21.362 0.291385 1.622897 -1.000568
2010-06-09 06:20:32 51°13.778 2°55.676 21.3623 0.291385 1.622897 -1.000568
2010-06-09 06:20:37 51°13.787 2°55.669 21.374 0.291385 1.622872 -1.035392
2010-06-09 06:20:42 51°13.796 2°55.661 21.3824 0.291385 1.622922 -1.000568
2010-06-09 06:20:47 51°13.805 2°55.654 21.3837 0.291385 1.622948 -1.035392
2010-06-09 06:20:52 51°13.815 2°55.646 21.3866 0.291385 1.622998 -1.000568
2010-06-09 06:20:57 51°13.825 2°55.639 21.387 0.291385 1.623049 -1.000568
2010-06-09 06:21:02 51°13.835 2°55.631 21.3871 0.291385 1.623049 -1.000568
2010-06-09 06:21:07 51°13.845 2°55.623 21.3882 0.291385 1.623049 -1.035392
2010-06-09 06:21:12 51°13.855 2°55.615 21.3881 0.291385 1.623074 -1.000568
2010-06-09 06:21:17 51°13.866 2°55.607 21.3697 0.291385 1.623074 -1.000568
2010-06-09 06:21:22 51°13.876 2°55.599 21.3666 0.291385 1.623023 -1.035392
2010-06-09 06:21:27 51°13.887 2°55.591 21.3773 0.291385 1.622948 -1.035392
2010-06-09 06:21:32 51°13.898 2°55.583 21.3792 0.291385 1.622948 -1.035392
2010-06-09 06:21:37 51°13.909 2°55.575 21.3775 0.291385 1.622922 -1.035392
2010-06-09 06:21:42 51°13.92 2°55.567 21.3877 0.291385 1.622922 -1.000568
2010-06-09 06:21:47 51°13.932 2°55.559 21.3902 0.291385 1.622948 -1.000568
2010-06-09 06:21:52 51°13.943 2°55.551 21.392 0.291385 1.622973 -1.035392
2010-06-09 06:21:57 51°13.954 2°55.543 21.3999 0.291385 1.623049 -1.035392
2010-06-09 06:22:02 51°13.966 2°55.535 21.4068 0.291385 1.623049 -1.035392
2010-06-09 06:22:06 51°13.975 2°55.528 21.4141 0.291385 1.623074 -1.000568
2010-06-09 06:22:12 51°13.989 2°55.518 21.4088 0.291385 1.62315 -1.000568
2010-06-09 06:22:17 51°14 2°55.509 21.3684 0.291385 1.623124 -1.035392
2010-06-09 06:22:22 51°14.012 2°55.5 21.3545 0.291385 1.623099 -1.000568
2010-06-09 06:22:27 51°14.024 2°55.492 21.3936 0.291385 1.623023 -1.000568
2010-06-09 06:22:32 51°14.035 2°55.483 21.4049 0.291385 1.623023 -1.000568
2010-06-09 06:22:37 51°14.047 2°55.474 21.396 0.291385 1.623023 -1.035392
2010-06-09 06:22:42 51°14.059 2°55.465 21.4026 0.291385 1.623023 -1.000568
2010-06-09 06:22:47 51°14.071 2°55.456 21.4231 0.291385 1.623023 -1.035392
2010-06-09 06:22:52 51°14.084 2°55.447 21.4013 0.291385 1.623049 -1.035392
2010-06-09 06:22:57 51°14.096 2°55.437 21.399 0.291385 1.623099 -1.000568
2010-06-09 06:23:02 51°14.108 2°55.427 21.4111 0.291385 1.623099 -1.000568
2010-06-09 06:23:07 51°14.12 2°55.417 21.3993 0.291385 1.623099 -1.000568
2010-06-09 06:23:13 51°14.134 2°55.405 21.4231 0.291385 1.623099 -1.035392
2010-06-09 06:23:17 51°14.144 2°55.397 21.4035 0.291385 1.623074 -1.000568
2010-06-09 06:23:22 51°14.157 2°55.386 21.4167 0.291385 1.623074 -1.035392
2010-06-09 06:23:27 51°14.169 2°55.376 21.4213 0.291385 1.623099 -1.035392
2010-06-09 06:23:32 51°14.181 2°55.365 21.4161 0.291385 1.623099 -1.035392
2010-06-09 06:23:38 51°14.196 2°55.352 21.4048 0.291385 1.623099 -1.000568
2010-06-09 06:23:42 51°14.206 2°55.343 21.4 0.291281 1.622485 -1.000568
2010-06-09 06:23:47 51°14.218 2°55.332 21.3929 0.291385 1.623124 -1.000568
2010-06-09 06:23:52 51°14.231 2°55.321 21.405 0.291385 1.623124 -1.035392
2010-06-09 06:23:57 51°14.243 2°55.31 21.3934 0.291385 1.623124 -1.035392
2010-06-09 06:24:02 51°14.256 2°55.299 21.395 0.291385 1.623124 -1.035392
2010-06-09 06:24:07 51°14.268 2°55.287 21.4058 0.291385 1.623124 -1.000568
2010-06-09 06:24:12 51°14.281 2°55.276 21.404 0.291385 1.623124 -0.965744
2010-06-09 06:24:17 51°14.294 2°55.264 21.404 0.291385 1.62315 -1.000568
2010-06-09 06:24:22 51°14.306 2°55.253 21.4316 0.291385 1.623099 -1.035392
2010-06-09 06:24:26 51°14.316 2°55.243 21.4135 0.291385 1.62315 -1.000568
2010-06-09 06:24:32 51°14.332 2°55.229 21.401 0.291385 1.62315 -1.000568
2010-06-09 06:24:37 51°14.345 2°55.217 21.4081 0.291281 1.622561 -1.000568
2010-06-09 06:24:42 51°14.357 2°55.205 21.4391 0.291385 1.623175 -1.000568
2010-06-09 06:24:47 51°14.37 2°55.192 21.4087 0.291385 1.623175 -1.035392
2010-06-09 06:24:52 51°14.382 2°55.179 21.3882 0.291281 1.622586 -1.000568
2010-06-09 06:24:57 51°14.395 2°55.166 21.3943 0.291385 1.6232 -1.035392
2010-06-09 06:25:02 51°14.408 2°55.153 21.3941 0.291385 1.6232 -1.035392
2010-06-09 06:25:06 51°14.418 2°55.143 21.4029 0.291281 1.622561 -1.035392
2010-06-09 06:25:12 51°14.433 2°55.126 21.4287 0.291281 1.622586 -1.035392
2010-06-09 06:25:17 51°14.446 2°55.113 21.3706 0.291385 1.623175 -1.035392
2010-06-09 06:25:22 51°14.458 2°55.099 21.4046 0.291281 1.622561 -1.000568
2010-06-09 06:25:27 51°14.471 2°55.086 21.4304 0.291385 1.6232 -1.000568
2010-06-09 06:25:33 51°14.486 2°55.07 21.3857 0.291385 1.6232 -1.000568
2010-06-09 06:25:37 51°14.496 2°55.059 21.3923 0.291385 1.6232 -1.000568
2010-06-09 06:25:42 51°14.509 2°55.045 21.3488 0.291281 1.622637 -1.000568
2010-06-09 06:25:47 51°14.521 2°55.031 21.3849 0.291281 1.622637 -1.035392
2010-06-09 06:25:52 51°14.534 2°55.017 21.3269 0.291281 1.622612 -1.000568
2010-06-09 06:25:57 51°14.547 2°55.004 21.3577 0.291281 1.622561 -1.000568
2010-06-09 06:26:02 51°14.56 2°54.991 21.3635 0.291281 1.622561 -1.000568
2010-06-09 06:26:07 51°14.574 2°54.979 21.3973 0.291281 1.622536 -0.965744
2010-06-09 06:26:12 51°14.587 2°54.967 21.3806 0.291281 1.622561 -1.035392
2010-06-09 06:26:18 51°14.603 2°54.952 21.3923 0.291281 1.622612 -1.000568
2010-06-09 06:26:22 51°14.614 2°54.943 21.395 0.291281 1.622637 -1.035392
2010-06-09 06:26:27 51°14.628 2°54.93 21.3204 0.291281 1.622713 -1.035392
2010-06-09 06:26:32 51°14.641 2°54.918 21.3424 0.291281 1.622713 -1.035392
2010-06-09 06:26:37 51°14.654 2°54.905 21.3776 0.291385 1.623352 -1.000568
2010-06-09 06:26:42 51°14.667 2°54.893 21.3664 0.291281 1.622662 -1.035392
2010-06-09 06:26:47 51°14.68 2°54.881 21.33 0.291385 1.623276 -1.000568
2010-06-09 06:26:52 51°14.694 2°54.87 21.3533 0.291281 1.622662 -1.070216
2010-06-09 06:26:57 51°14.707 2°54.858 21.3578 0.291281 1.622612 -1.000568
2010-06-09 06:27:02 51°14.72 2°54.847 21.3578 0.291281 1.622612 -1.000568
2010-06-09 06:27:07 51°14.734 2°54.837 21.3718 0.291281 1.622612 -1.000568
2010-06-09 06:27:12 51°14.748 2°54.826 21.3397 0.291281 1.622687 -1.035392
2010-06-09 06:27:17 51°14.763 2°54.815 21.3365 0.291281 1.622687 -1.000568
2010-06-09 06:27:22 51°14.777 2°54.804 21.3627 0.291385 1.623276 -1.000568
2010-06-09 06:27:27 51°14.792 2°54.794 21.3085 0.291281 1.622662 -1.035392
2010-06-09 06:27:32 51°14.807 2°54.783 21.353 0.291281 1.622662 -1.035392
2010-06-09 06:27:37 51°14.823 2°54.771 21.321 0.291281 1.622713 -1.000568
2010-06-09 06:27:42 51°14.838 2°54.76 21.2711 0.291385 1.623327 -1.000568
2010-06-09 06:27:46 51°14.85 2°54.75 21.3149 0.291281 1.622612 -1.000568
2010-06-09 06:27:52 51°14.869 2°54.737 21.3165 0.291281 1.622586 -1.000568
2010-06-09 06:27:57 51°14.885 2°54.726 21.3389 0.291281 1.622612 -1.000568
2010-06-09 06:28:02 51°14.901 2°54.715 21.2881 0.291281 1.622612 -1.000568
2010-06-09 06:28:06 51°14.914 2°54.705 21.2878 0.291281 1.622637 -1.000568
2010-06-09 06:28:12 51°14.934 2°54.693 21.287 0.291281 1.622738 -1.000568
2010-06-09 06:28:17 51°14.951 2°54.682 21.2975 0.291281 1.622713 -1.035392
2010-06-09 06:28:22 51°14.967 2°54.673 21.3231 0.291281 1.622637 -1.035392
2010-06-09 06:28:27 51°14.984 2°54.664 21.3325 0.291281 1.622637 -1.000568
2010-06-09 06:28:32 51°15.001 2°54.655 21.3318 0.291281 1.622637 -1.000568
2010-06-09 06:28:37 51°15.018 2°54.646 21.3131 0.291281 1.622637 -1.000568
2010-06-09 06:28:42 51°15.034 2°54.636 21.3738 0.291281 1.622738 -1.000568
2010-06-09 06:28:47 51°15.051 2°54.625 21.3095 0.291281 1.622839 -1.035392
2010-06-09 06:28:52 51°15.067 2°54.612 21.3568 0.291281 1.622915 -1.000568
2010-06-09 06:28:57 51°15.082 2°54.599 21.2801 0.291281 1.622915 -1.035392
2010-06-09 06:29:02 51°15.097 2°54.584 21.2484 0.291281 1.622915 -1.035392
2010-06-09 06:29:07 51°15.112 2°54.568 21.2897 0.291281 1.622839 -1.035392
2010-06-09 06:29:12 51°15.127 2°54.552 21.2943 0.291281 1.622713 -1.035392
2010-06-09 06:29:17 51°15.142 2°54.536 21.2504 0.291281 1.622637 -1.000568
2010-06-09 06:29:22 51°15.156 2°54.52 21.2426 0.291281 1.622586 -1.000568
2010-06-09 06:29:27 51°15.172 2°54.505 21.2351 0.291281 1.622586 -1.035392
2010-06-09 06:29:32 51°15.187 2°54.491 21.2638 0.291281 1.622586 -1.035392
2010-06-09 06:29:37 51°15.203 2°54.477 21.287 0.291281 1.622612 -1.035392
2010-06-09 06:29:42 51°15.22 2°54.465 21.2943 0.291281 1.622687 -1.035392
2010-06-09 06:29:47 51°15.236 2°54.452 21.2962 0.291281 1.622789 -1.000568
2010-06-09 06:29:52 51°15.253 2°54.441 21.2649 0.291281 1.622814 -0.965744
2010-06-09 06:29:57 51°15.269 2°54.429 21.2974 0.291281 1.622839 -1.000568
2010-06-09 06:30:02 51°15.286 2°54.416 21.3252 0.291281 1.622839 -1.000568
2010-06-09 06:30:06 51°15.299 2°54.406 21.2966 0.291281 1.622789 -1.000568
2010-06-09 06:30:12 51°15.318 2°54.39 21.3193 0.291281 1.622839 -1.000568
2010-06-09 06:30:17 51°15.335 2°54.376 21.2894 0.291281 1.622814 -1.035392
2010-06-09 06:30:22 51°15.35 2°54.361 21.2883 0.291281 1.622839 -1.035392
2010-06-09 06:30:27 51°15.366 2°54.347 21.3058 0.291281 1.622864 -1.035392
2010-06-09 06:30:33 51°15.385 2°54.329 21.2683 0.291281 1.622864 -1.035392
2010-06-09 06:30:38 51°15.401 2°54.313 21.2834 0.291281 1.622864 -1.035392
2010-06-09 06:30:43 51°15.417 2°54.298 21.2874 0.291281 1.622839 -1.035392
2010-06-09 06:30:48 51°15.433 2°54.282 21.2709 0.291281 1.62289 -1.035392
2010-06-09 06:30:53 51°15.449 2°54.267 21.2871 0.291281 1.622814 -1.035392
2010-06-09 06:30:58 51°15.464 2°54.251 21.2927 0.291281 1.622789 -1.000568
2010-06-09 06:31:03 51°15.48 2°54.236 21.2629 0.291281 1.622789 -1.000568
2010-06-09 06:31:08 51°15.496 2°54.221 21.2824 0.291281 1.622839 -1.070216
2010-06-09 06:31:13 51°15.512 2°54.206 21.2827 0.291281 1.622864 -1.000568
2010-06-09 06:31:18 51°15.528 2°54.191 21.2714 0.291281 1.62289 -1.035392
2010-06-09 06:31:23 51°15.544 2°54.176 21.2903 0.291281 1.62289 -1.000568
2010-06-09 06:31:28 51°15.56 2°54.161 21.2816 0.291281 1.622915 -1.000568
2010-06-09 06:31:33 51°15.576 2°54.146 21.2832 0.291281 1.622915 -1.000568
2010-06-09 06:31:38 51°15.592 2°54.131 21.2815 0.291281 1.622915 -1.035392
2010-06-09 06:31:43 51°15.608 2°54.115 21.2856 0.291281 1.62289 -1.035392
2010-06-09 06:31:47 51°15.621 2°54.103 21.2662 0.291281 1.622915 -1.035392
2010-06-09 06:31:53 51°15.64 2°54.085 21.2858 0.291281 1.62289 -1.000568
2010-06-09 06:31:58 51°15.656 2°54.07 21.2847 0.291281 1.62289 -1.035392
2010-06-09 06:32:03 51°15.672 2°54.055 21.2891 0.291281 1.62289 -1.035392
2010-06-09 06:32:08 51°15.688 2°54.041 21.2797 0.291281 1.622915 -1.035392
2010-06-09 06:32:13 51°15.704 2°54.026 21.295 0.291281 1.62294 -1.000568
2010-06-09 06:32:18 51°15.72 2°54.011 21.3114 0.291281 1.622965 -0.965744
2010-06-09 06:32:23 51°15.735 2°53.996 21.3173 0.291281 1.62294 -1.035392
2010-06-09 06:32:27 51°15.747 2°53.984 21.2611 0.291281 1.622965 -1.000568
2010-06-09 06:32:33 51°15.765 2°53.963 21.2925 0.291281 1.622965 -1.000568
2010-06-09 06:32:38 51°15.78 2°53.947 21.2615 0.291281 1.622991 -1.000568
2010-06-09 06:32:43 51°15.795 2°53.93 21.2836 0.291281 1.623016 -1.035392
2010-06-09 06:32:48 51°15.81 2°53.913 21.286 0.291281 1.62294 -1.035392
2010-06-09 06:32:53 51°15.824 2°53.895 21.2983 0.291385 1.623579 -1.000568
2010-06-09 06:32:58 51°15.839 2°53.878 21.283 0.291281 1.622965 -1.000568
2010-06-09 06:33:03 51°15.854 2°53.86 21.243 0.291281 1.622965 -1.000568
2010-06-09 06:33:08 51°15.868 2°53.843 21.2578 0.291281 1.622965 -1.000568
2010-06-09 06:33:13 51°15.883 2°53.825 21.2908 0.291281 1.623016 -1.035392
2010-06-09 06:33:17 51°15.895 2°53.811 21.2816 0.291281 1.623041 -1.000568
2010-06-09 06:33:23 51°15.912 2°53.791 21.2274 0.291281 1.623016 -1.000568
2010-06-09 06:33:28 51°15.926 2°53.773 21.2746 0.291385 1.623655 -1.035392
2010-06-09 06:33:33 51°15.941 2°53.756 21.2469 0.291385 1.623655 -1.035392
2010-06-09 06:33:38 51°15.956 2°53.739 21.2641 0.291281 1.623041 -1.000568
2010-06-09 06:33:43 51°15.97 2°53.722 21.2853 0.291281 1.623016 -1.000568
2010-06-09 06:33:47 51°15.982 2°53.709 21.2875 0.291281 1.623016 -1.000568
2010-06-09 06:33:53 51°16 2°53.688 21.2573 0.291281 1.623016 -1.035392
2010-06-09 06:33:57 51°16.012 2°53.674 21.2611 0.291281 1.623041 -1.000568
2010-06-09 06:34:03 51°16.029 2°53.653 21.27 0.291281 1.623041 -1.000568
2010-06-09 06:34:08 51°16.044 2°53.636 21.2841 0.291281 1.623041 -1.000568
2010-06-09 06:34:13 51°16.059 2°53.619 21.2566 0.291281 1.623067 -1.000568
2010-06-09 06:34:18 51°16.074 2°53.602 21.2669 0.291281 1.623092 -1.035392
2010-06-09 06:34:23 51°16.088 2°53.585 21.2781 0.291281 1.623092 -1.000568
2010-06-09 06:34:27 51°16.1 2°53.571 21.279 0.291281 1.623092 -1.000568
2010-06-09 06:34:33 51°16.118 2°53.55 21.2901 0.291281 1.623092 -1.000568
2010-06-09 06:34:38 51°16.133 2°53.533 21.2827 0.291281 1.623067 -1.000568
2010-06-09 06:34:43 51°16.147 2°53.515 21.2658 0.291281 1.623092 -1.000568
2010-06-09 06:34:48 51°16.162 2°53.498 21.2433 0.291281 1.623092 -1.035392
2010-06-09 06:34:53 51°16.177 2°53.48 21.283 0.291281 1.623092 -1.000568
2010-06-09 06:34:57 51°16.189 2°53.466 21.2756 0.291281 1.623092 -1.000568
2010-06-09 06:35:03 51°16.207 2°53.446 21.2646 0.291281 1.623092 -1.000568
2010-06-09 06:35:08 51°16.221 2°53.429 21.2808 0.291281 1.623117 -1.035392
2010-06-09 06:35:13 51°16.236 2°53.412 21.2891 0.291281 1.623142 -1.035392
2010-06-09 06:35:18 51°16.251 2°53.395 21.2767 0.291281 1.623168 -1.035392
2010-06-09 06:35:23 51°16.266 2°53.377 21.2845 0.291281 1.623168 -1.035392
2010-06-09 06:35:27 51°16.278 2°53.364 21.2578 0.291281 1.623193 -1.035392
2010-06-09 06:35:33 51°16.296 2°53.343 21.2549 0.291281 1.623193 -1.035392
2010-06-09 06:35:38 51°16.311 2°53.327 21.2777 0.291281 1.623168 -1.000568
2010-06-09 06:35:43 51°16.326 2°53.31 21.2759 0.291281 1.623168 -1.035392
2010-06-09 06:35:48 51°16.341 2°53.294 21.275 0.291281 1.623168 -1.000568
2010-06-09 06:35:53 51°16.355 2°53.277 21.2791 0.291281 1.623193 -1.035392
2010-06-09 06:35:58 51°16.37 2°53.261 21.282 0.291281 1.623193 -0.965744
2010-06-09 06:36:03 51°16.385 2°53.244 21.2878 0.291281 1.623193 -0.965744
2010-06-09 06:36:08 51°16.4 2°53.228 21.2883 0.291281 1.623218 -1.035392
2010-06-09 06:36:13 51°16.415 2°53.211 21.2899 0.291281 1.623218 -1.000568
2010-06-09 06:36:18 51°16.43 2°53.195 21.2619 0.291281 1.623244 -1.000568
2010-06-09 06:36:23 51°16.445 2°53.178 21.2941 0.291281 1.623244 -1.000568
2010-06-09 06:36:28 51°16.459 2°53.162 21.2713 0.291281 1.623244 -1.000568
2010-06-09 06:36:33 51°16.474 2°53.145 21.2655 0.291281 1.623244 -1.000568
2010-06-09 06:36:38 51°16.489 2°53.129 21.2779 0.291281 1.623269 -1.035392
2010-06-09 06:36:43 51°16.505 2°53.114 21.269 0.291281 1.623244 -0.965744
2010-06-09 06:36:47 51°16.517 2°53.102 21.2736 0.291281 1.623244 -1.000568
2010-06-09 06:36:53 51°16.535 2°53.084 21.2751 0.291281 1.623269 -1.035392
2010-06-09 06:36:58 51°16.551 2°53.069 21.2603 0.291281 1.623269 -1.035392
2010-06-09 06:37:03 51°16.566 2°53.055 21.2706 0.291281 1.623269 -1.035392
2010-06-09 06:37:07 51°16.579 2°53.044 21.3019 0.291281 1.623294 -1.035392
2010-06-09 06:37:13 51°16.597 2°53.027 21.2495 0.291281 1.623294 -1.000568
2010-06-09 06:37:18 51°16.613 2°53.013 21.2888 0.291281 1.623319 -1.035392
2010-06-09 06:37:23 51°16.629 2°52.999 21.2977 0.291281 1.623345 -1.000568
2010-06-09 06:37:28 51°16.644 2°52.985 21.2938 0.291281 1.623319 -1.000568
2010-06-09 06:37:33 51°16.66 2°52.971 21.2659 0.291281 1.623319 -1.000568
2010-06-09 06:37:38 51°16.675 2°52.957 21.2663 0.291281 1.623345 -1.000568
2010-06-09 06:37:43 51°16.691 2°52.943 21.2839 0.291281 1.623345 -1.000568
2010-06-09 06:37:48 51°16.706 2°52.929 21.2854 0.291281 1.62337 -1.000568
2010-06-09 06:37:53 51°16.722 2°52.915 21.2903 0.291281 1.62337 -1.035392
2010-06-09 06:37:58 51°16.737 2°52.902 21.2825 0.291281 1.62337 -1.000568
2010-06-09 06:38:03 51°16.753 2°52.887 21.281 0.291281 1.62337 -1.000568
2010-06-09 06:38:07 51°16.765 2°52.876 21.2838 0.291281 1.62337 -1.035392
2010-06-09 06:38:13 51°16.784 2°52.86 21.2865 0.291281 1.623421 -1.000568
2010-06-09 06:38:18 51°16.799 2°52.846 21.291 0.291281 1.623395 -1.000568
2010-06-09 06:38:23 51°16.815 2°52.832 21.2886 0.291281 1.623395 -1.035392
2010-06-09 06:38:28 51°16.83 2°52.818 21.3017 0.291281 1.623421 -1.000568
2010-06-09 06:38:33 51°16.845 2°52.805 21.2419 0.291281 1.623421 -1.000568
2010-06-09 06:38:38 51°16.86 2°52.791 21.2844 0.291281 1.623395 -1.000568
2010-06-09 06:38:43 51°16.876 2°52.778 21.2704 0.291281 1.623421 -1.000568
2010-06-09 06:38:48 51°16.892 2°52.766 21.275 0.291281 1.623421 -1.035392
2010-06-09 06:38:53 51°16.908 2°52.755 21.2823 0.291281 1.62337 -1.000568
2010-06-09 06:38:58 51°16.924 2°52.744 21.2827 0.291281 1.623446 -1.000568
2010-06-09 06:39:03 51°16.94 2°52.734 21.2986 0.291281 1.623446 -1.000568
2010-06-09 06:39:07 51°16.953 2°52.725 21.2953 0.291281 1.623421 -1.035392
2010-06-09 06:39:13 51°16.973 2°52.713 21.2983 0.291281 1.623496 -1.000568
2010-06-09 06:39:18 51°16.99 2°52.704 21.2952 0.291281 1.623496 -1.035392
2010-06-09 06:39:23 51°17.007 2°52.695 21.2993 0.291281 1.623522 -1.000568
2010-06-09 06:39:28 51°17.023 2°52.686 21.3115 0.291281 1.623522 -1.000568
2010-06-09 06:39:33 51°17.04 2°52.677 21.3001 0.291281 1.623522 -1.000568
2010-06-09 06:39:38 51°17.057 2°52.668 21.3009 0.291281 1.623496 -1.000568
2010-06-09 06:39:43 51°17.074 2°52.659 21.2903 0.291281 1.623522 -1.000568
2010-06-09 06:39:48 51°17.091 2°52.652 21.2625 0.291281 1.623496 -0.965744
2010-06-09 06:39:53 51°17.107 2°52.644 21.3038 0.291281 1.623522 -1.035392
2010-06-09 06:39:58 51°17.124 2°52.639 21.2736 0.291281 1.623471 -1.000568
2010-06-09 06:40:03 51°17.141 2°52.633 21.3008 0.291281 1.623471 -1.000568
2010-06-09 06:40:07 51°17.155 2°52.63 21.2934 0.291281 1.623572 -1.000568
2010-06-09 06:40:13 51°17.175 2°52.623 21.3066 0.291281 1.623572 -1.035392
2010-06-09 06:40:18 51°17.192 2°52.619 21.2966 0.291281 1.623598 -1.035392
2010-06-09 06:40:23 51°17.21 2°52.616 21.3163 0.291281 1.623572 -1.000568
2010-06-09 06:40:28 51°17.227 2°52.612 21.295 0.291281 1.623598 -1.000568
2010-06-09 06:40:33 51°17.244 2°52.608 21.3093 0.291281 1.623598 -1.000568
2010-06-09 06:40:38 51°17.261 2°52.604 21.3127 0.291281 1.623522 -1.000568
2010-06-09 06:40:43 51°17.278 2°52.601 21.3123 0.291281 1.623598 -1.035392
2010-06-09 06:40:48 51°17.296 2°52.597 21.3115 0.291281 1.623598 -1.000568
2010-06-09 06:40:53 51°17.313 2°52.593 21.3139 0.291281 1.623598 -1.000568
2010-06-09 06:40:58 51°17.33 2°52.59 21.2846 0.291281 1.623623 -1.035392
2010-06-09 06:41:03 51°17.347 2°52.586 21.3216 0.291281 1.623623 -1.035392
2010-06-09 06:41:07 51°17.361 2°52.583 21.3241 0.291281 1.623674 -1.035392
2010-06-09 06:41:13 51°17.382 2°52.579 21.3057 0.291281 1.623674 -1.035392
2010-06-09 06:41:18 51°17.399 2°52.575 21.308 0.291281 1.623648 -1.000568
2010-06-09 06:41:23 51°17.416 2°52.571 21.3121 0.291281 1.623674 -1.000568
2010-06-09 06:41:28 51°17.433 2°52.567 21.2957 0.291281 1.623674 -1.035392
2010-06-09 06:41:33 51°17.451 2°52.563 21.3054 0.291281 1.623674 -1.035392
2010-06-09 06:41:38 51°17.468 2°52.559 21.3178 0.291281 1.623699 -1.000568
2010-06-09 06:41:43 51°17.485 2°52.556 21.2873 0.291281 1.623648 -1.000568
2010-06-09 06:41:48 51°17.502 2°52.551 21.3244 0.291281 1.623674 -1.000568
2010-06-09 06:41:53 51°17.52 2°52.548 21.3155 0.291281 1.623699 -1.000568
2010-06-09 06:41:58 51°17.537 2°52.544 21.3153 0.291281 1.623699 -1.000568
2010-06-09 06:42:03 51°17.554 2°52.54 21.3191 0.291281 1.623699 -1.000568
2010-06-09 06:42:08 51°17.571 2°52.535 21.3209 0.291281 1.623724 -1.000568
2010-06-09 06:42:13 51°17.588 2°52.53 21.3217 0.291281 1.623775 -1.035392
2010-06-09 06:42:18 51°17.605 2°52.526 21.312 0.291281 1.623775 -1.000568
2010-06-09 06:42:23 51°17.622 2°52.52 21.328 0.291281 1.6238 -1.000568
2010-06-09 06:42:27 51°17.636 2°52.515 21.3199 0.291281 1.623749 -1.035392
2010-06-09 06:42:33 51°17.657 2°52.508 21.3211 0.291281 1.623749 -1.035392
2010-06-09 06:42:38 51°17.674 2°52.503 21.3105 0.291281 1.623775 -1.035392
2010-06-09 06:42:43 51°17.691 2°52.497 21.3151 0.291281 1.623775 -1.000568
2010-06-09 06:42:48 51°17.708 2°52.491 21.3292 0.291281 1.623749 -1.000568
2010-06-09 06:42:53 51°17.725 2°52.486 21.3287 0.291281 1.623775 -1.035392
2010-06-09 06:42:58 51°17.742 2°52.48 21.3056 0.291281 1.6238 -1.000568
2010-06-09 06:43:03 51°17.759 2°52.475 21.327 0.291281 1.6238 -1.000568
2010-06-09 06:43:07 51°17.773 2°52.47 21.3227 0.291281 1.623851 -1.000568
2010-06-09 06:43:13 51°17.793 2°52.463 21.303 0.291281 1.623876 -1.000568
2010-06-09 06:43:18 51°17.81 2°52.456 21.3306 0.291176 1.623262 -1.070216
2010-06-09 06:43:23 51°17.827 2°52.451 21.3189 0.291281 1.623901 -1.000568
2010-06-09 06:43:28 51°17.844 2°52.445 21.317 0.291281 1.623851 -1.035392
2010-06-09 06:43:33 51°17.861 2°52.439 21.3252 0.291281 1.623851 -1.035392
2010-06-09 06:43:38 51°17.878 2°52.433 21.3163 0.291281 1.623876 -1.035392
2010-06-09 06:43:43 51°17.895 2°52.426 21.3196 0.291281 1.623876 -1.000568
2010-06-09 06:43:48 51°17.912 2°52.42 21.3205 0.291281 1.623876 -1.000568
2010-06-09 06:43:53 51°17.93 2°52.415 21.317 0.291281 1.623901 -1.000568
2010-06-09 06:43:58 51°17.947 2°52.409 21.3218 0.291281 1.623927 -1.035392
2010-06-09 06:44:03 51°17.964 2°52.403 21.33 0.291281 1.623927 -1.035392
2010-06-09 06:44:08 51°17.981 2°52.398 21.3311 0.291281 1.623927 -1.035392
2010-06-09 06:44:13 51°17.998 2°52.392 21.3145 0.291281 1.623977 -1.000568
2010-06-09 06:44:18 51°18.015 2°52.386 21.3322 0.291281 1.623977 -1.000568
2010-06-09 06:44:23 51°18.032 2°52.38 21.3226 0.291281 1.623952 -1.000568
2010-06-09 06:44:27 51°18.046 2°52.376 21.3344 0.291281 1.623952 -1.000568
2010-06-09 06:44:33 51°18.067 2°52.37 21.3292 0.291281 1.623952 -1.000568
2010-06-09 06:44:38 51°18.084 2°52.364 21.3241 0.291281 1.623952 -1.035392
2010-06-09 06:44:43 51°18.101 2°52.359 21.3273 0.291281 1.623977 -1.035392
2010-06-09 06:44:48 51°18.118 2°52.354 21.3341 0.291281 1.624003 -1.000568
2010-06-09 06:44:53 51°18.136 2°52.349 21.3437 0.291281 1.624003 -1.035392
2010-06-09 06:44:58 51°18.153 2°52.343 21.3386 0.291281 1.624053 -1.035392
2010-06-09 06:45:03 51°18.17 2°52.337 21.3128 0.291281 1.624053 -1.035392
2010-06-09 06:45:07 51°18.184 2°52.332 21.3401 0.291281 1.624053 -1.000568
2010-06-09 06:45:13 51°18.205 2°52.325 21.3276 0.291281 1.624028 -1.000568
2010-06-09 06:45:18 51°18.222 2°52.319 21.331 0.291281 1.624053 -1.035392
2010-06-09 06:45:23 51°18.239 2°52.313 21.3468 0.291281 1.624053 -1.070216
2010-06-09 06:45:28 51°18.256 2°52.307 21.3299 0.291281 1.624053 -1.035392
2010-06-09 06:45:33 51°18.273 2°52.301 21.336 0.291281 1.624053 -1.035392
2010-06-09 06:45:38 51°18.291 2°52.295 21.3398 0.291281 1.624079 -1.000568
2010-06-09 06:45:43 51°18.308 2°52.29 21.343 0.291281 1.624079 -1.035392
2010-06-09 06:45:48 51°18.325 2°52.284 21.3414 0.291281 1.624129 -1.000568
2010-06-09 06:45:53 51°18.342 2°52.278 21.347 0.291281 1.624129 -1.000568
2010-06-09 06:45:58 51°18.36 2°52.272 21.3361 0.291281 1.624129 -1.035392
2010-06-09 06:46:03 51°18.377 2°52.266 21.3412 0.291281 1.624129 -1.035392
2010-06-09 06:46:08 51°18.394 2°52.261 21.3276 0.291281 1.624129 -1.000568
2010-06-09 06:46:13 51°18.411 2°52.254 21.3445 0.291281 1.624154 -1.000568
2010-06-09 06:46:18 51°18.428 2°52.249 21.3356 0.291281 1.624154 -1.000568
2010-06-09 06:46:23 51°18.446 2°52.242 21.3495 0.291281 1.62418 -1.035392
2010-06-09 06:46:27 51°18.459 2°52.238 21.3343 0.291281 1.62418 -1.000568
2010-06-09 06:46:33 51°18.48 2°52.23 21.3566 0.291281 1.62418 -1.000568
2010-06-09 06:46:38 51°18.497 2°52.225 21.3468 0.291281 1.62418 -1.000568
2010-06-09 06:46:43 51°18.514 2°52.218 21.3466 0.291281 1.624205 -1.035392
2010-06-09 06:46:48 51°18.531 2°52.212 21.3488 0.291281 1.624205 -1.035392
2010-06-09 06:46:53 51°18.549 2°52.206 21.3307 0.291281 1.62423 -1.000568
2010-06-09 06:46:58 51°18.566 2°52.2 21.3572 0.291281 1.62423 -1.000568
2010-06-09 06:47:03 51°18.583 2°52.194 21.3516 0.291281 1.62423 -1.000568
2010-06-09 06:47:07 51°18.597 2°52.189 21.3449 0.291281 1.62423 -1.035392
2010-06-09 06:47:13 51°18.617 2°52.182 21.3452 0.291281 1.62423 -1.000568
2010-06-09 06:47:18 51°18.635 2°52.175 21.36 0.291281 1.624256 -1.000568
2010-06-09 06:47:23 51°18.652 2°52.169 21.3478 0.291281 1.624281 -1.035392
2010-06-09 06:47:28 51°18.669 2°52.163 21.3191 0.291281 1.624256 -1.035392
2010-06-09 06:47:33 51°18.686 2°52.157 21.353 0.291281 1.624256 -1.035392
2010-06-09 06:47:38 51°18.703 2°52.15 21.3644 0.291176 1.623667 -1.000568
2010-06-09 06:47:43 51°18.72 2°52.144 21.3252 0.291281 1.624306 -1.000568
2010-06-09 06:47:48 51°18.737 2°52.138 21.3444 0.291176 1.623692 -1.000568
2010-06-09 06:47:53 51°18.755 2°52.131 21.3593 0.291281 1.624357 -1.000568
2010-06-09 06:47:58 51°18.772 2°52.125 21.3395 0.291281 1.624332 -1.000568
2010-06-09 06:48:03 51°18.789 2°52.118 21.3571 0.291281 1.624332 -1.000568
2010-06-09 06:48:08 51°18.806 2°52.112 21.353 0.291281 1.624332 -1.000568
2010-06-09 06:48:13 51°18.823 2°52.105 21.351 0.291281 1.624332 -1.000568
2010-06-09 06:48:18 51°18.841 2°52.098 21.3653 0.291281 1.624332 -1.035392
2010-06-09 06:48:23 51°18.858 2°52.092 21.3297 0.291281 1.624332 -1.035392
2010-06-09 06:48:27 51°18.872 2°52.087 21.3616 0.291281 1.624357 -1.000568
2010-06-09 06:48:33 51°18.893 2°52.079 21.36 0.291281 1.624357 -1.000568
2010-06-09 06:48:38 51°18.91 2°52.072 21.3609 0.291176 1.623717 -1.035392
2010-06-09 06:48:43 51°18.927 2°52.066 21.3503 0.291281 1.624382 -1.035392
2010-06-09 06:48:48 51°18.944 2°52.059 21.3539 0.291281 1.624382 -1.035392
2010-06-09 06:48:53 51°18.962 2°52.053 21.36 0.291281 1.624382 -1.000568
2010-06-09 06:48:58 51°18.979 2°52.046 21.356 0.291281 1.624408 -1.000568
2010-06-09 06:49:03 51°18.996 2°52.04 21.3636 0.291281 1.624408 -1.000568
2010-06-09 06:49:07 51°19.01 2°52.035 21.3575 0.291281 1.624382 -1.035392
2010-06-09 06:49:13 51°19.031 2°52.027 21.3685 0.291176 1.623819 -1.000568
2010-06-09 06:49:18 51°19.048 2°52.02 21.3408 0.291281 1.624433 -1.000568
2010-06-09 06:49:23 51°19.065 2°52.014 21.359 0.291281 1.624408 -1.000568
2010-06-09 06:49:28 51°19.083 2°52.008 21.36 0.291281 1.624433 -1.000568
2010-06-09 06:49:33 51°19.1 2°52.001 21.3738 0.291281 1.624433 -1.000568
2010-06-09 06:49:38 51°19.117 2°51.995 21.3578 0.291176 1.623819 -1.000568
2010-06-09 06:49:43 51°19.135 2°51.988 21.3573 0.291281 1.624458 -1.000568
2010-06-09 06:49:48 51°19.152 2°51.982 21.3681 0.291281 1.624458 -1.035392
2010-06-09 06:49:53 51°19.169 2°51.976 21.373 0.291176 1.623819 -1.000568
2010-06-09 06:49:58 51°19.187 2°51.97 21.3563 0.291176 1.623844 -1.000568
2010-06-09 06:50:03 51°19.204 2°51.963 21.339 0.291176 1.623844 -1.000568
2010-06-09 06:50:07 51°19.218 2°51.958 21.3635 0.291281 1.624484 -1.035392
2010-06-09 06:50:13 51°19.239 2°51.951 21.3718 0.291176 1.623869 -1.035392
2010-06-09 06:50:18 51°19.256 2°51.944 21.3553 0.291281 1.624509 -1.035392
2010-06-09 06:50:23 51°19.274 2°51.938 21.3495 0.291176 1.623894 -1.000568
2010-06-09 06:50:28 51°19.291 2°51.932 21.3698 0.291281 1.624534 -1.000568
2010-06-09 06:50:33 51°19.308 2°51.925 21.3719 0.291281 1.624534 -1.000568
2010-06-09 06:50:38 51°19.326 2°51.919 21.3683 0.291176 1.62392 -1.000568
2010-06-09 06:50:43 51°19.343 2°51.912 21.3559 0.291176 1.62392 -1.035392
2010-06-09 06:50:48 51°19.36 2°51.906 21.3614 0.291176 1.62392 -1.035392
2010-06-09 06:50:53 51°19.378 2°51.9 21.3769 0.291176 1.62392 -1.035392
2010-06-09 06:50:58 51°19.395 2°51.893 21.3615 0.291176 1.62392 -1.000568
2010-06-09 06:51:03 51°19.413 2°51.887 21.3795 0.291176 1.62392 -1.000568
2010-06-09 06:51:07 51°19.427 2°51.882 21.3447 0.291176 1.623945 -1.000568
2010-06-09 06:51:13 51°19.448 2°51.875 21.3589 0.291176 1.623945 -1.000568
2010-06-09 06:51:18 51°19.465 2°51.868 21.3835 0.291176 1.62392 -1.000568
2010-06-09 06:51:23 51°19.482 2°51.862 21.3631 0.291176 1.62397 -1.000568
2010-06-09 06:51:28 51°19.499 2°51.856 21.3372 0.291176 1.623945 -1.035392
2010-06-09 06:51:33 51°19.517 2°51.85 21.3614 0.291176 1.623945 -1.035392
2010-06-09 06:51:38 51°19.534 2°51.844 21.3801 0.291176 1.623996 -1.000568
2010-06-09 06:51:43 51°19.551 2°51.838 21.359 0.291176 1.623996 -1.035392
2010-06-09 06:51:48 51°19.569 2°51.832 21.3552 0.291176 1.623996 -1.035392
2010-06-09 06:51:53 51°19.586 2°51.826 21.3777 0.291176 1.62397 -1.000568
2010-06-09 06:51:58 51°19.604 2°51.82 21.3742 0.291176 1.623996 -1.000568
2010-06-09 06:52:03 51°19.621 2°51.813 21.3727 0.291176 1.623996 -1.000568
2010-06-09 06:52:07 51°19.635 2°51.809 21.3809 0.291176 1.623996 -1.000568
2010-06-09 06:52:13 51°19.655 2°51.801 21.3734 0.291176 1.623996 -1.000568
2010-06-09 06:52:18 51°19.673 2°51.795 21.3662 0.291176 1.624046 -1.000568
2010-06-09 06:52:23 51°19.689 2°51.788 21.3654 0.291176 1.624046 -1.035392
2010-06-09 06:52:28 51°19.706 2°51.782 21.3647 0.291176 1.624046 -1.000568
2010-06-09 06:52:33 51°19.722 2°51.776 21.3732 0.291176 1.624046 -1.000568
2010-06-09 06:52:38 51°19.738 2°51.771 21.3567 0.291176 1.624046 -1.000568
2010-06-09 06:52:43 51°19.753 2°51.766 21.3761 0.291176 1.624046 -1.035392
2010-06-09 06:52:48 51°19.769 2°51.761 21.3759 0.291176 1.624046 -1.000568
2010-06-09 06:52:53 51°19.784 2°51.756 21.3834 0.291176 1.624072 -1.000568
2010-06-09 06:52:58 51°19.799 2°51.752 21.3818 0.291072 1.623432 -1.035392
2010-06-09 06:53:03 51°19.814 2°51.747 21.3838 0.291072 1.623432 -1.035392
2010-06-09 06:53:07 51°19.826 2°51.744 21.3885 0.291176 1.624097 -1.000568
2010-06-09 06:53:13 51°19.844 2°51.738 21.3914 0.291072 1.623482 -1.035392
2010-06-09 06:53:18 51°19.859 2°51.733 21.3805 0.291176 1.624072 -1.035392
2010-06-09 06:53:23 51°19.874 2°51.728 21.3783 0.291072 1.623482 -1.000568
2010-06-09 06:53:28 51°19.889 2°51.724 21.3928 0.291072 1.623482 -1.000568
2010-06-09 06:53:33 51°19.904 2°51.719 21.3871 0.291072 1.623482 -1.000568
2010-06-09 06:53:38 51°19.919 2°51.714 21.3871 0.291072 1.623457 -1.000568
2010-06-09 06:53:43 51°19.934 2°51.71 21.3981 0.291072 1.623482 -1.035392
2010-06-09 06:53:47 51°19.946 2°51.706 21.3963 0.291176 1.624072 -1.000568
2010-06-09 06:53:53 51°19.964 2°51.7 21.3958 0.291072 1.623508 -1.035392
2010-06-09 06:53:58 51°19.978 2°51.695 21.3852 0.291072 1.623508 -1.035392
2010-06-09 06:54:03 51°19.993 2°51.69 21.3971 0.291072 1.623508 -1.035392
2010-06-09 06:54:07 51°20.005 2°51.687 21.3996 0.291072 1.623508 -1.000568
2010-06-09 06:54:13 51°20.023 2°51.681 21.4008 0.291072 1.623533 -1.000568
2010-06-09 06:54:18 51°20.037 2°51.676 21.3979 0.291072 1.623558 -1.035392
2010-06-09 06:54:23 51°20.052 2°51.672 21.4041 0.291072 1.623533 -1.035392
2010-06-09 06:54:27 51°20.064 2°51.668 21.4053 0.291072 1.623533 -1.035392
2010-06-09 06:54:33 51°20.082 2°51.662 21.3964 0.291072 1.623533 -1.035392
2010-06-09 06:54:38 51°20.097 2°51.657 21.3898 0.291072 1.623533 -1.035392
2010-06-09 06:54:43 51°20.113 2°51.651 21.3981 0.291072 1.623508 -1.035392
2010-06-09 06:54:47 51°20.125 2°51.647 21.3834 0.291072 1.623533 -1.000568
2010-06-09 06:54:53 51°20.145 2°51.641 21.3913 0.291072 1.623533 -1.035392
2010-06-09 06:54:58 51°20.162 2°51.636 21.3871 0.291072 1.623558 -1.000568
2010-06-09 06:55:03 51°20.179 2°51.631 21.3878 0.291072 1.623558 -1.000568
2010-06-09 06:55:08 51°20.196 2°51.627 21.3929 0.291072 1.623508 -1.000568
2010-06-09 06:55:13 51°20.214 2°51.622 21.408 0.291072 1.623533 -1.035392
2010-06-09 06:55:18 51°20.232 2°51.618 21.4019 0.291072 1.623533 -1.035392
2010-06-09 06:55:23 51°20.249 2°51.613 21.4069 0.291072 1.623558 -1.000568
2010-06-09 06:55:28 51°20.267 2°51.608 21.4069 0.291072 1.623584 -1.000568
2010-06-09 06:55:33 51°20.285 2°51.603 21.4035 0.291072 1.623584 -1.000568
2010-06-09 06:55:38 51°20.302 2°51.598 21.4088 0.291072 1.623584 -1.035392
2010-06-09 06:55:43 51°20.32 2°51.594 21.4066 0.291072 1.623584 -1.035392
2010-06-09 06:55:48 51°20.338 2°51.589 21.4057 0.290968 1.622944 -1.000568
2010-06-09 06:55:53 51°20.356 2°51.584 21.4112 0.291072 1.623558 -1.035392
2010-06-09 06:55:58 51°20.374 2°51.579 21.4089 0.290968 1.622969 -1.035392
2010-06-09 06:56:03 51°20.391 2°51.575 21.4117 0.290968 1.622969 -1.035392
2010-06-09 06:56:08 51°20.409 2°51.57 21.4097 0.291072 1.623609 -1.000568
2010-06-09 06:56:13 51°20.427 2°51.565 21.4124 0.291072 1.623609 -1.000568
2010-06-09 06:56:18 51°20.445 2°51.56 21.4012 0.290968 1.622994 -1.035392
2010-06-09 06:56:23 51°20.463 2°51.555 21.4171 0.290968 1.62302 -1.000568
2010-06-09 06:56:27 51°20.477 2°51.551 21.412 0.290968 1.62302 -1.035392
2010-06-09 06:56:33 51°20.499 2°51.546 21.3946 0.290968 1.62302 -1.035392
2010-06-09 06:56:38 51°20.517 2°51.54 21.416 0.291072 1.623609 -1.035392
2010-06-09 06:56:43 51°20.535 2°51.535 21.4152 0.290968 1.622994 -1.000568
2010-06-09 06:56:48 51°20.552 2°51.53 21.4152 0.290968 1.622994 -1.035392
2010-06-09 06:56:53 51°20.57 2°51.525 21.4064 0.290968 1.62302 -1.035392
2010-06-09 06:56:58 51°20.588 2°51.52 21.4097 0.290968 1.623045 -1.000568
2010-06-09 06:57:03 51°20.606 2°51.515 21.4153 0.290968 1.623045 -1.000568
2010-06-09 06:57:08 51°20.624 2°51.51 21.4186 0.291072 1.62366 -1.000568
2010-06-09 06:57:13 51°20.642 2°51.505 21.4066 0.290968 1.62302 -1.035392
2010-06-09 06:57:13 51°20.642 2°51.505 21.4066 0.290968 1.62302 -1.035392
2010-06-09 06:57:23 51°20.677 2°51.494 21.4156 0.290968 1.62307 -1.035392
2010-06-09 06:57:27 51°20.692 2°51.49 21.4234 0.290968 1.62307 -1.035392
2010-06-09 06:57:33 51°20.713 2°51.484 21.4153 0.290968 1.623045 -1.000568
2010-06-09 06:57:38 51°20.731 2°51.479 21.4191 0.290968 1.623045 -1.000568
2010-06-09 06:57:43 51°20.749 2°51.473 21.4105 0.290968 1.62307 -1.000568
2010-06-09 06:57:47 51°20.763 2°51.469 21.4151 0.290968 1.623045 -1.035392
2010-06-09 06:58:07 51°20.835 2°51.447 21.4221 0.290968 1.62307 -1.035392
2010-06-09 06:58:19 51°20.878 2°51.433 21.4157 0.290968 1.623096 -1.035392
2010-06-09 06:58:25 51°20.899 2°51.427 21.4153 0.290968 1.623096 -1.035392
2010-06-09 06:58:30 51°20.917 2°51.421 21.4245 0.290968 1.623096 -1.035392
2010-06-09 06:58:35 51°20.935 2°51.416 21.4277 0.290968 1.623096 -1.035392
2010-06-09 06:58:39 51°20.95 2°51.412 21.4309 0.290968 1.623096 -1.000568
2010-06-09 06:58:45 51°20.971 2°51.406 21.4275 0.290968 1.623096 -1.000568
2010-06-09 06:58:50 51°20.989 2°51.4 21.42 0.290968 1.623121 -1.000568
2010-06-09 06:58:55 51°21.007 2°51.395 21.4249 0.290968 1.623146 -1.000568
2010-06-09 06:59:00 51°21.025 2°51.39 21.4265 0.290968 1.623146 -1.035392
2010-06-09 06:59:05 51°21.043 2°51.384 21.4281 0.290968 1.623146 -1.035392
2010-06-09 06:59:10 51°21.061 2°51.379 21.4314 0.290968 1.623172 -1.035392
2010-06-09 06:59:15 51°21.079 2°51.373 21.4167 0.290968 1.623172 -1.035392
2010-06-09 06:59:19 51°21.094 2°51.369 21.4323 0.290968 1.623146 -1.000568
2010-06-09 06:59:25 51°21.115 2°51.362 21.4404 0.290864 1.622532 -1.035392
2010-06-09 06:59:30 51°21.133 2°51.356 21.4338 0.290968 1.623146 -1.035392
2010-06-09 06:59:42 51°21.176 2°51.339 21.3991 0.290864 1.622582 -1.035392
2010-06-09 06:59:47 51°21.194 2°51.332 21.438 0.290968 1.623222 -1.035392
2010-06-09 06:59:52 51°21.212 2°51.323 21.412 0.290864 1.622633 -1.000568
2010-06-09 06:59:57 51°21.23 2°51.316 21.4437 0.290864 1.622633 -1.000568
2010-06-09 07:00:08 51°21.268 2°51.298 21.4192 0.290968 1.623222 -1.035392
2010-06-09 07:00:13 51°21.286 2°51.289 21.4406 0.290864 1.622582 -1.000568
2010-06-09 07:00:18 51°21.304 2°51.28 21.438 0.290968 1.623197 -0.965744
2010-06-09 07:00:23 51°21.322 2°51.271 21.4228 0.290968 1.623197 -1.000568
2010-06-09 07:00:28 51°21.339 2°51.262 21.4359 0.290968 1.623222 -1.000568
2010-06-09 07:00:33 51°21.357 2°51.254 21.4306 0.290968 1.623222 -1.000568
2010-06-09 07:00:38 51°21.375 2°51.246 21.4472 0.290864 1.622633 -1.000568
2010-06-09 07:00:43 51°21.393 2°51.238 21.4308 0.290864 1.622633 -1.035392
2010-06-09 07:00:48 51°21.411 2°51.23 21.4349 0.290864 1.622658 -1.000568
2010-06-09 07:00:53 51°21.429 2°51.222 21.4365 0.290864 1.622633 -1.000568
2010-06-09 07:00:58 51°21.447 2°51.214 21.4375 0.290864 1.622633 -1.035392
2010-06-09 07:01:03 51°21.464 2°51.207 21.4551 0.290864 1.622633 -1.035392
2010-06-09 07:01:08 51°21.482 2°51.197 21.4543 0.290968 1.623248 -1.035392
2010-06-09 07:01:13 51°21.5 2°51.189 21.447 0.290968 1.623298 -0.965744
2010-06-09 07:01:18 51°21.517 2°51.178 21.4479 0.290864 1.622734 -1.035392
2010-06-09 07:01:23 51°21.534 2°51.168 21.4482 0.290968 1.623324 -1.000568
2010-06-09 07:01:27 51°21.548 2°51.158 21.4557 0.290864 1.622759 -1.000568
2010-06-09 07:01:33 51°21.568 2°51.145 21.4309 0.290864 1.622759 -1.000568
2010-06-09 07:01:38 51°21.585 2°51.133 21.449 0.290864 1.622734 -1.000568
2010-06-09 07:01:43 51°21.602 2°51.121 21.4359 0.290864 1.622684 -1.000568
2010-06-09 07:01:48 51°21.619 2°51.108 21.4304 0.290864 1.622709 -1.000568
2010-06-09 07:01:53 51°21.635 2°51.095 21.4312 0.290864 1.622734 -1.000568
2010-06-09 07:01:58 51°21.652 2°51.083 21.4536 0.290968 1.623324 -1.000568
2010-06-09 07:02:03 51°21.669 2°51.07 21.4454 0.290968 1.623324 -1.000568
2010-06-09 07:02:07 51°21.682 2°51.059 21.425 0.290864 1.622759 -1.000568
2010-06-09 07:02:13 51°21.702 2°51.044 21.4288 0.290864 1.622785 -1.035392
2010-06-09 07:02:18 51°21.719 2°51.031 21.4383 0.290864 1.622759 -1.035392
2010-06-09 07:02:23 51°21.735 2°51.019 21.4366 0.290968 1.6234 -1.000568
2010-06-09 07:02:27 51°21.749 2°51.009 21.4441 0.290864 1.622785 -1.035392
2010-06-09 07:02:33 51°21.769 2°50.996 21.4492 0.290864 1.622785 -1.035392
2010-06-09 07:02:38 51°21.786 2°50.984 21.4533 0.290864 1.622759 -1.000568
2010-06-09 07:02:43 51°21.803 2°50.973 21.4345 0.290864 1.622734 -1.000568
2010-06-09 07:02:47 51°21.817 2°50.964 21.4512 0.290864 1.622785 -1.000568
2010-06-09 07:02:53 51°21.837 2°50.952 21.4451 0.290864 1.622835 -1.035392
2010-06-09 07:02:58 51°21.855 2°50.942 21.4472 0.290864 1.622835 -1.035392
2010-06-09 07:03:03 51°21.872 2°50.933 21.4399 0.290864 1.622835 -1.035392
2010-06-09 07:03:07 51°21.886 2°50.925 21.4427 0.290864 1.622886 -1.000568
2010-06-09 07:03:13 51°21.907 2°50.914 21.4481 0.290864 1.62281 -1.070216
2010-06-09 07:03:18 51°21.924 2°50.907 21.4514 0.290864 1.622835 -1.035392
2010-06-09 07:03:23 51°21.942 2°50.898 21.4364 0.290864 1.622835 -1.000568
2010-06-09 07:03:28 51°21.959 2°50.891 21.458 0.290864 1.622861 -1.035392
2010-06-09 07:03:33 51°21.977 2°50.883 21.4579 0.290864 1.622861 -1.035392
2010-06-09 07:03:38 51°21.995 2°50.877 21.4493 0.290864 1.622886 -1.000568
2010-06-09 07:03:43 51°22.013 2°50.869 21.4519 0.290864 1.622911 -1.000568
2010-06-09 07:03:48 51°22.03 2°50.862 21.4508 0.290864 1.622886 -1.035392
2010-06-09 07:03:53 51°22.048 2°50.856 21.4544 0.290864 1.622911 -1.000568
2010-06-09 07:03:58 51°22.066 2°50.849 21.4481 0.290864 1.622911 -1.000568
2010-06-09 07:04:03 51°22.083 2°50.841 21.4607 0.290864 1.622911 -1.000568
2010-06-09 07:04:07 51°22.098 2°50.835 21.4596 0.290864 1.622962 -1.000568
2010-06-09 07:04:13 51°22.119 2°50.827 21.4595 0.290864 1.622962 -1.035392
2010-06-09 07:04:18 51°22.136 2°50.82 21.4564 0.290864 1.622962 -1.000568
2010-06-09 07:04:23 51°22.154 2°50.812 21.4483 0.290864 1.622962 -1.000568
2010-06-09 07:04:28 51°22.171 2°50.806 21.4652 0.290864 1.622911 -1.035392
2010-06-09 07:04:33 51°22.189 2°50.8 21.4578 0.290864 1.622911 -1.035392
2010-06-09 07:04:38 51°22.207 2°50.793 21.4587 0.290864 1.622987 -1.000568
2010-06-09 07:04:43 51°22.225 2°50.787 21.4636 0.290864 1.622911 -1.035392
2010-06-09 07:04:48 51°22.242 2°50.781 21.4711 0.290864 1.623013 -1.000568
2010-06-09 07:04:53 51°22.26 2°50.775 21.4765 0.290864 1.623013 -1.000568
2010-06-09 07:04:58 51°22.278 2°50.768 21.4485 0.290864 1.623038 -1.000568
2010-06-09 07:05:03 51°22.296 2°50.762 21.4647 0.290864 1.623038 -1.000568
2010-06-09 07:05:08 51°22.314 2°50.756 21.4597 0.290864 1.623063 -1.000568
2010-06-09 07:05:13 51°22.332 2°50.75 21.4443 0.290864 1.623038 -1.000568
2010-06-09 07:05:18 51°22.35 2°50.743 21.4747 0.290864 1.623063 -1.000568
2010-06-09 07:05:23 51°22.367 2°50.737 21.4558 0.290864 1.623063 -1.035392
2010-06-09 07:05:28 51°22.385 2°50.73 21.4458 0.290864 1.623063 -0.965744
2010-06-09 07:05:33 51°22.403 2°50.724 21.4709 0.290864 1.623063 -0.965744
2010-06-09 07:05:38 51°22.421 2°50.718 21.4782 0.290864 1.623139 -1.000568
2010-06-09 07:05:43 51°22.438 2°50.711 21.442 0.290864 1.623089 -1.035392
2010-06-09 07:05:47 51°22.452 2°50.706 21.4687 0.290864 1.623114 -1.035392
2010-06-09 07:05:53 51°22.474 2°50.698 21.467 0.290864 1.62319 -1.000568
2010-06-09 07:05:58 51°22.491 2°50.692 21.4739 0.290864 1.623114 -1.035392
2010-06-09 07:06:03 51°22.509 2°50.685 21.4662 0.290864 1.623114 -1.035392
2010-06-09 07:06:08 51°22.527 2°50.679 21.4711 0.290864 1.623139 -1.035392
2010-06-09 07:06:13 51°22.545 2°50.672 21.4587 0.290864 1.623139 -1.035392
2010-06-09 07:06:18 51°22.563 2°50.667 21.4608 0.290864 1.623165 -1.000568
2010-06-09 07:06:23 51°22.581 2°50.661 21.468 0.290864 1.623114 -1.000568
2010-06-09 07:06:28 51°22.599 2°50.656 21.4761 0.290864 1.623165 -0.965744
2010-06-09 07:06:33 51°22.617 2°50.651 21.4786 0.290864 1.623165 -0.965744
2010-06-09 07:06:38 51°22.635 2°50.646 21.4531 0.290864 1.623165 -1.000568
2010-06-09 07:06:43 51°22.653 2°50.641 21.4736 0.290864 1.623241 -1.000568
2010-06-09 07:06:47 51°22.667 2°50.637 21.4807 0.290864 1.623215 -1.000568
2010-06-09 07:06:53 51°22.689 2°50.63 21.4719 0.290864 1.623266 -1.000568
2010-06-09 07:06:58 51°22.707 2°50.624 21.4786 0.290864 1.623266 -1.000568
2010-06-09 07:07:03 51°22.725 2°50.619 21.4598 0.290864 1.623266 -1.000568
2010-06-09 07:07:08 51°22.743 2°50.613 21.4822 0.290864 1.623241 -1.035392
2010-06-09 07:07:13 51°22.761 2°50.608 21.4556 0.290864 1.623215 -1.035392
2010-06-09 07:07:18 51°22.779 2°50.602 21.476 0.290864 1.623266 -1.000568
2010-06-09 07:07:23 51°22.797 2°50.597 21.477 0.290864 1.623266 -1.000568
2010-06-09 07:07:28 51°22.815 2°50.591 21.4829 0.290864 1.623291 -1.035392
2010-06-09 07:07:33 51°22.832 2°50.586 21.4576 0.290864 1.623291 -1.035392
2010-06-09 07:07:38 51°22.85 2°50.58 21.479 0.290864 1.623317 -1.035392
2010-06-09 07:07:43 51°22.868 2°50.575 21.4753 0.290864 1.623317 -1.035392
2010-06-09 07:07:48 51°22.886 2°50.569 21.4756 0.290864 1.623342 -1.035392
2010-06-09 07:07:53 51°22.904 2°50.564 21.479 0.290864 1.623367 -1.000568
2010-06-09 07:07:58 51°22.921 2°50.558 21.4664 0.290864 1.623342 -1.000568
2010-06-09 07:08:03 51°22.939 2°50.553 21.4837 0.290864 1.623342 -1.000568
2010-06-09 07:08:08 51°22.957 2°50.547 21.4778 0.290968 1.623982 -1.000568
2010-06-09 07:08:13 51°22.975 2°50.542 21.4757 0.290864 1.623393 -1.000568
2010-06-09 07:08:18 51°22.993 2°50.537 21.4841 0.290864 1.623342 -1.000568
2010-06-09 07:08:23 51°23.01 2°50.531 21.4875 0.290864 1.623418 -1.000568
2010-06-09 07:08:27 51°23.025 2°50.527 21.478 0.290864 1.623393 -1.035392
2010-06-09 07:08:33 51°23.046 2°50.52 21.4878 0.290864 1.623393 -1.035392
2010-06-09 07:08:38 51°23.064 2°50.515 21.4676 0.290864 1.623418 -1.000568
2010-06-09 07:08:43 51°23.082 2°50.509 21.491 0.290864 1.623469 -1.000568
2010-06-09 07:08:48 51°23.1 2°50.503 21.4672 0.290864 1.623469 -1.000568
2010-06-09 07:08:53 51°23.117 2°50.497 21.4938 0.290864 1.623443 -1.000568
2010-06-09 07:08:58 51°23.135 2°50.491 21.4868 0.290864 1.623494 -1.000568
2010-06-09 07:09:03 51°23.153 2°50.485 21.4753 0.290864 1.623494 -1.000568
2010-06-09 07:09:08 51°23.171 2°50.479 21.4942 0.290864 1.623494 -1.000568
2010-06-09 07:09:13 51°23.188 2°50.473 21.4705 0.290864 1.623469 -1.000568
2010-06-09 07:09:18 51°23.206 2°50.466 21.4881 0.290864 1.623545 -1.000568
2010-06-09 07:09:23 51°23.224 2°50.46 21.4945 0.290968 1.62416 -1.000568
2010-06-09 07:09:27 51°23.238 2°50.455 21.4812 0.290864 1.623545 -1.000568
2010-06-09 07:09:33 51°23.259 2°50.448 21.4797 0.290864 1.623545 -1.000568
2010-06-09 07:09:38 51°23.277 2°50.442 21.4886 0.290968 1.624185 -1.000568
2010-06-09 07:09:43 51°23.295 2°50.436 21.4955 0.290864 1.62357 -1.000568
2010-06-09 07:09:48 51°23.312 2°50.43 21.4778 0.290864 1.623621 -1.000568
2010-06-09 07:09:53 51°23.33 2°50.424 21.4966 0.290864 1.623621 -1.035392
2010-06-09 07:09:58 51°23.348 2°50.417 21.4931 0.290864 1.623595 -1.000568
2010-06-09 07:10:03 51°23.366 2°50.411 21.4937 0.290864 1.623595 -1.000568
2010-06-09 07:10:07 51°23.38 2°50.406 21.4921 0.290864 1.623621 -1.035392
2010-06-09 07:10:13 51°23.401 2°50.399 21.4927 0.290968 1.624236 -1.000568
2010-06-09 07:10:18 51°23.419 2°50.393 21.4958 0.290864 1.623646 -1.000568
2010-06-09 07:10:23 51°23.437 2°50.386 21.4978 0.290968 1.624337 -1.000568
2010-06-09 07:10:28 51°23.455 2°50.38 21.4994 0.290864 1.623672 -1.000568
2010-06-09 07:10:33 51°23.472 2°50.373 21.4787 0.290864 1.623672 -1.000568
2010-06-09 07:10:38 51°23.49 2°50.367 21.4872 0.290968 1.624312 -1.000568
2010-06-09 07:10:43 51°23.508 2°50.361 21.503 0.290864 1.623722 -1.000568
2010-06-09 07:10:48 51°23.526 2°50.355 21.5024 0.290864 1.623722 -1.000568
2010-06-09 07:10:53 51°23.544 2°50.348 21.4907 0.290968 1.624388 -1.000568
2010-06-09 07:10:58 51°23.561 2°50.342 21.4994 0.290864 1.623722 -1.000568
2010-06-09 07:11:03 51°23.579 2°50.335 21.4844 0.290864 1.623722 -1.000568
2010-06-09 07:11:07 51°23.593 2°50.33 21.4991 0.290864 1.623773 -1.000568
2010-06-09 07:11:13 51°23.615 2°50.322 21.497 0.290864 1.623798 -0.965744
2010-06-09 07:11:18 51°23.633 2°50.316 21.5039 0.290968 1.624439 -1.035392
2010-06-09 07:11:23 51°23.65 2°50.309 21.4986 0.290968 1.624464 -1.000568
2010-06-09 07:11:28 51°23.668 2°50.303 21.5015 0.290968 1.624464 -1.035392
2010-06-09 07:11:33 51°23.686 2°50.296 21.4957 0.290968 1.624464 -1.035392
2010-06-09 07:11:38 51°23.704 2°50.29 21.5073 0.290968 1.624464 -1.000568
2010-06-09 07:11:43 51°23.722 2°50.283 21.5044 0.290968 1.624464 -1.000568
2010-06-09 07:11:48 51°23.74 2°50.277 21.5102 0.290968 1.62454 -1.035392
2010-06-09 07:11:53 51°23.758 2°50.27 21.505 0.290968 1.62449 -1.035392
2010-06-09 07:11:58 51°23.776 2°50.263 21.5005 0.290968 1.62454 -1.000568
2010-06-09 07:12:03 51°23.794 2°50.257 21.5048 0.290968 1.62454 -1.000568
2010-06-09 07:12:07 51°23.808 2°50.252 21.5071 0.290968 1.624566 -1.000568
2010-06-09 07:12:13 51°23.83 2°50.244 21.507 0.290968 1.624566 -1.035392
2010-06-09 07:12:18 51°23.848 2°50.237 21.5056 0.290968 1.624591 -1.000568
2010-06-09 07:12:23 51°23.866 2°50.231 21.5099 0.290968 1.624616 -1.035392
2010-06-09 07:12:27 51°23.88 2°50.226 21.4975 0.290968 1.624616 -1.000568
2010-06-09 07:12:33 51°23.902 2°50.218 21.5061 0.290968 1.624616 -1.000568
2010-06-09 07:12:38 51°23.92 2°50.211 21.5145 0.290968 1.624642 -1.035392
2010-06-09 07:12:43 51°23.938 2°50.205 21.5152 0.290968 1.624642 -1.000568
2010-06-09 07:12:48 51°23.956 2°50.199 21.4891 0.290968 1.624667 -1.035392
2010-06-09 07:12:53 51°23.974 2°50.192 21.5094 0.290968 1.624667 -1.000568
2010-06-09 07:12:58 51°23.992 2°50.186 21.5061 0.290968 1.624718 -1.000568
2010-06-09 07:13:03 51°24.01 2°50.18 21.5138 0.290968 1.624718 -1.000568
2010-06-09 07:13:08 51°24.028 2°50.173 21.5128 0.290968 1.624743 -1.000568
2010-06-09 07:13:13 51°24.046 2°50.167 21.513 0.290968 1.624743 -1.000568
2010-06-09 07:13:18 51°24.064 2°50.16 21.509 0.290968 1.624743 -1.035392
2010-06-09 07:13:23 51°24.082 2°50.154 21.5226 0.290968 1.624769 -1.035392
2010-06-09 07:13:28 51°24.1 2°50.148 21.5101 0.290968 1.624794 -1.035392
2010-06-09 07:13:33 51°24.118 2°50.142 21.5134 0.290968 1.624794 -1.035392
2010-06-09 07:13:38 51°24.136 2°50.135 21.5128 0.290968 1.624845 -1.000568
2010-06-09 07:13:43 51°24.154 2°50.129 21.519 0.290968 1.624819 -1.000568
2010-06-09 07:13:48 51°24.172 2°50.123 21.5219 0.290968 1.624845 -1.000568
2010-06-09 07:13:53 51°24.19 2°50.117 21.5259 0.290968 1.624896 -1.035392
2010-06-09 07:13:58 51°24.208 2°50.111 21.4965 0.290968 1.62487 -1.000568
2010-06-09 07:14:03 51°24.226 2°50.104 21.5055 0.290968 1.62487 -1.000568
2010-06-09 07:14:07 51°24.24 2°50.1 21.5261 0.291072 1.625536 -1.035392
2010-06-09 07:14:13 51°24.261 2°50.091 21.5182 0.291072 1.625562 -1.000568
2010-06-09 07:14:18 51°24.279 2°50.085 21.522 0.290968 1.624946 -1.035392
2010-06-09 07:14:23 51°24.297 2°50.079 21.5253 0.290968 1.624972 -1.000568
2010-06-09 07:14:28 51°24.315 2°50.072 21.5257 0.290968 1.624997 -1.000568
2010-06-09 07:14:33 51°24.333 2°50.066 21.5052 0.290968 1.624997 -1.000568
2010-06-09 07:14:38 51°24.351 2°50.059 21.5232 0.291072 1.625613 -1.000568
2010-06-09 07:14:43 51°24.369 2°50.053 21.5226 0.290968 1.625022 -1.035392
2010-06-09 07:14:47 51°24.383 2°50.047 21.5256 0.291072 1.625689 -1.035392
2010-06-09 07:14:53 51°24.405 2°50.04 21.5137 0.291072 1.625714 -1.035392
2010-06-09 07:14:58 51°24.423 2°50.033 21.5235 0.291072 1.62574 -1.000568
2010-06-09 07:15:03 51°24.441 2°50.027 21.5116 0.291072 1.62574 -1.000568
2010-06-09 07:15:08 51°24.458 2°50.02 21.5088 0.291072 1.625689 -1.035392
2010-06-09 07:15:13 51°24.476 2°50.013 21.5227 0.291072 1.62574 -1.035392
2010-06-09 07:15:18 51°24.494 2°50.006 21.5341 0.291072 1.625765 -1.000568
2010-06-09 07:15:23 51°24.512 2°49.999 21.504 0.290968 1.625175 -1.000568
2010-06-09 07:15:28 51°24.53 2°49.993 21.5326 0.291072 1.625841 -1.000568
2010-06-09 07:15:33 51°24.548 2°49.986 21.5305 0.291072 1.625841 -1.000568
2010-06-09 07:15:38 51°24.566 2°49.98 21.5341 0.290968 1.625226 -1.000568
2010-06-09 07:15:43 51°24.583 2°49.973 21.506 0.291072 1.625841 -1.035392
2010-06-09 07:15:47 51°24.598 2°49.968 21.5368 0.290968 1.625251 -1.035392
2010-06-09 07:15:53 51°24.619 2°49.96 21.5198 0.291072 1.625917 -1.000568
2010-06-09 07:15:58 51°24.637 2°49.953 21.5358 0.291072 1.625917 -1.035392
2010-06-09 07:16:03 51°24.655 2°49.946 21.5144 0.291072 1.625917 -1.035392
2010-06-09 07:16:08 51°24.673 2°49.939 21.535 0.291072 1.625943 -1.000568
2010-06-09 07:16:13 51°24.691 2°49.933 21.5276 0.291072 1.625943 -1.035392
2010-06-09 07:16:18 51°24.709 2°49.926 21.5355 0.291072 1.625968 -1.035392
2010-06-09 07:16:23 51°24.726 2°49.919 21.5326 0.291072 1.625994 -1.000568
2010-06-09 07:16:28 51°24.744 2°49.912 21.5376 0.291072 1.626019 -1.035392
2010-06-09 07:16:33 51°24.762 2°49.906 21.5248 0.291072 1.626019 -1.035392
2010-06-09 07:16:38 51°24.78 2°49.899 21.5216 0.291072 1.626044 -1.000568
2010-06-09 07:16:43 51°24.798 2°49.892 21.5278 0.291072 1.626095 -1.035392
2010-06-09 07:16:48 51°24.816 2°49.886 21.5358 0.291072 1.626095 -1.000568
2010-06-09 07:16:53 51°24.834 2°49.879 21.5399 0.291072 1.626121 -1.000568
2010-06-09 07:16:58 51°24.852 2°49.872 21.5403 0.291072 1.626121 -1.000568
2010-06-09 07:17:03 51°24.87 2°49.866 21.543 0.291072 1.626121 -1.000568
2010-06-09 07:17:07 51°24.884 2°49.86 21.528 0.291072 1.626146 -1.035392
2010-06-09 07:17:13 51°24.906 2°49.852 21.5361 0.291176 1.626813 -1.000568
2010-06-09 07:17:18 51°24.924 2°49.845 21.5385 0.291072 1.626146 -1.000568
2010-06-09 07:17:23 51°24.942 2°49.839 21.5453 0.291176 1.626838 -1.035392
2010-06-09 07:17:28 51°24.96 2°49.832 21.5411 0.291072 1.626222 -1.035392
2010-06-09 07:17:33 51°24.977 2°49.825 21.5408 0.291072 1.626222 -1.035392
2010-06-09 07:17:38 51°24.995 2°49.818 21.5473 0.291072 1.626248 -1.035392
2010-06-09 07:17:43 51°25.013 2°49.812 21.5396 0.291072 1.626273 -1.035392
2010-06-09 07:17:48 51°25.031 2°49.805 21.5419 0.291072 1.626299 -1.000568
2010-06-09 07:17:53 51°25.049 2°49.798 21.5445 0.291072 1.626349 -1.000568
2010-06-09 07:17:58 51°25.067 2°49.791 21.5379 0.291072 1.626324 -1.035392
2010-06-09 07:18:03 51°25.085 2°49.784 21.5485 0.291072 1.626324 -1.035392
2010-06-09 07:18:07 51°25.1 2°49.778 21.5505 0.291072 1.626349 -1.000568
2010-06-09 07:18:13 51°25.121 2°49.77 21.5322 0.291072 1.626375 -1.000568
2010-06-09 07:18:18 51°25.139 2°49.763 21.5472 0.291072 1.626375 -1.035392
2010-06-09 07:18:23 51°25.157 2°49.756 21.5419 0.291176 1.627041 -1.000568
2010-06-09 07:18:28 51°25.175 2°49.75 21.5464 0.291072 1.626426 -1.000568
2010-06-09 07:18:33 51°25.193 2°49.743 21.5372 0.291072 1.626426 -1.000568
2010-06-09 07:18:38 51°25.211 2°49.736 21.5556 0.291072 1.626451 -1.000568
2010-06-09 07:18:43 51°25.229 2°49.73 21.5518 0.291072 1.626451 -0.965744
2010-06-09 07:18:48 51°25.248 2°49.723 21.5486 0.291072 1.626527 -1.035392
2010-06-09 07:18:53 51°25.266 2°49.716 21.5381 0.291072 1.626502 -1.000568
2010-06-09 07:18:58 51°25.284 2°49.709 21.5545 0.291072 1.626527 -1.035392
2010-06-09 07:19:03 51°25.302 2°49.703 21.5494 0.291072 1.626527 -1.035392
2010-06-09 07:19:08 51°25.32 2°49.696 21.5418 0.291176 1.627169 -1.000568
2010-06-09 07:19:13 51°25.338 2°49.689 21.5369 0.291072 1.626578 -1.035392
2010-06-09 07:19:18 51°25.356 2°49.682 21.558 0.291072 1.626578 -1.035392
2010-06-09 07:19:23 51°25.374 2°49.676 21.5557 0.291176 1.627219 -1.035392
2010-06-09 07:19:27 51°25.389 2°49.67 21.5547 0.291072 1.626629 -0.965744
2010-06-09 07:19:33 51°25.411 2°49.662 21.5491 0.291072 1.626629 -0.965744
2010-06-09 07:19:38 51°25.429 2°49.655 21.5507 0.291176 1.627245 -1.000568
2010-06-09 07:19:43 51°25.447 2°49.648 21.561 0.291072 1.62668 -1.035392
2010-06-09 07:19:48 51°25.466 2°49.641 21.5508 0.291176 1.627321 -1.000568
2010-06-09 07:19:53 51°25.484 2°49.634 21.5612 0.291072 1.62668 -1.035392
2010-06-09 07:19:58 51°25.502 2°49.627 21.5617 0.291072 1.626731 -1.000568
2010-06-09 07:20:03 51°25.52 2°49.62 21.5514 0.291072 1.626731 -1.000568
2010-06-09 07:20:07 51°25.535 2°49.615 21.5511 0.291176 1.627372 -1.035392
2010-06-09 07:20:13 51°25.557 2°49.607 21.5603 0.291072 1.626782 -1.000568
2010-06-09 07:20:18 51°25.575 2°49.6 21.5578 0.291176 1.627423 -1.000568
2010-06-09 07:20:23 51°25.593 2°49.594 21.5503 0.291072 1.626756 -1.035392
2010-06-09 07:20:28 51°25.612 2°49.587 21.563 0.291176 1.627448 -1.000568
2010-06-09 07:20:33 51°25.63 2°49.58 21.563 0.291176 1.627448 -1.000568
2010-06-09 07:20:38 51°25.648 2°49.573 21.5575 0.291072 1.626833 -0.965744
2010-06-09 07:20:43 51°25.667 2°49.566 21.559 0.291176 1.627499 -1.000568
2010-06-09 07:20:48 51°25.685 2°49.56 21.557 0.291176 1.627474 -1.000568
2010-06-09 07:20:53 51°25.703 2°49.553 21.5578 0.291176 1.627525 -1.035392
2010-06-09 07:20:58 51°25.722 2°49.546 21.565 0.291176 1.62755 -1.000568
2010-06-09 07:21:03 51°25.74 2°49.54 21.56 0.291176 1.62755 -1.000568
2010-06-09 07:21:07 51°25.755 2°49.535 21.5589 0.291072 1.626909 -1.035392
2010-06-09 07:21:13 51°25.777 2°49.527 21.5563 0.291176 1.627601 -1.000568
2010-06-09 07:21:18 51°25.795 2°49.52 21.5678 0.291072 1.626985 -0.965744
2010-06-09 07:21:23 51°25.814 2°49.513 21.547 0.291176 1.627678 -1.035392
2010-06-09 07:21:28 51°25.832 2°49.506 21.5446 0.291176 1.627627 -1.000568
2010-06-09 07:21:33 51°25.851 2°49.5 21.5742 0.291176 1.627627 -1.000568
2010-06-09 07:21:38 51°25.869 2°49.493 21.5669 0.291072 1.627062 -1.035392
2010-06-09 07:21:43 51°25.888 2°49.487 21.5765 0.291072 1.627087 -1.000568
2010-06-09 07:21:48 51°25.906 2°49.48 21.5658 0.291176 1.627703 -1.000568
2010-06-09 07:21:53 51°25.924 2°49.473 21.575 0.291072 1.627138 -1.035392
2010-06-09 07:21:58 51°25.943 2°49.467 21.5638 0.291176 1.627754 -1.000568
2010-06-09 07:22:03 51°25.961 2°49.46 21.571 0.291176 1.627754 -1.000568
2010-06-09 07:22:07 51°25.976 2°49.455 21.5764 0.291176 1.627805 -1.000568
2010-06-09 07:22:13 51°25.998 2°49.447 21.5729 0.291072 1.627163 -1.035392
2010-06-09 07:22:18 51°26.016 2°49.44 21.5545 0.291176 1.627805 -1.035392
2010-06-09 07:22:23 51°26.034 2°49.433 21.5756 0.291176 1.627856 -1.000568
2010-06-09 07:22:28 51°26.053 2°49.427 21.5756 0.291072 1.627214 -1.035392
2010-06-09 07:22:33 51°26.071 2°49.42 21.5668 0.291072 1.627214 -1.035392
2010-06-09 07:22:38 51°26.09 2°49.413 21.5817 0.291176 1.627856 -1.035392
2010-06-09 07:22:43 51°26.108 2°49.406 21.5798 0.291072 1.627265 -1.000568
2010-06-09 07:22:48 51°26.127 2°49.399 21.5833 0.291176 1.627907 -1.000568
2010-06-09 07:22:53 51°26.145 2°49.392 21.5798 0.291176 1.627983 -1.000568
2010-06-09 07:22:58 51°26.163 2°49.385 21.5795 0.291072 1.627367 -1.000568
2010-06-09 07:23:03 51°26.182 2°49.378 21.5794 0.291072 1.627367 -1.000568
2010-06-09 07:23:07 51°26.196 2°49.373 21.5821 0.291176 1.627983 -1.000568
2010-06-09 07:23:13 51°26.218 2°49.365 21.5697 0.291072 1.627418 -1.000568
2010-06-09 07:23:18 51°26.237 2°49.358 21.5818 0.291072 1.627392 -1.035392
2010-06-09 07:23:23 51°26.255 2°49.352 21.5706 0.291176 1.62806 -1.000568
2010-06-09 07:23:27 51°26.27 2°49.347 21.5746 0.291176 1.628085 -1.000568
2010-06-09 07:23:34 51°26.295 2°49.338 21.5755 0.291176 1.628085 -1.000568
2010-06-09 07:23:38 51°26.31 2°49.333 21.5802 0.291176 1.62811 -1.035392
2010-06-09 07:23:43 51°26.329 2°49.326 21.5828 0.291176 1.62811 -1.000568
2010-06-09 07:23:47 51°26.343 2°49.321 21.5837 0.291072 1.627545 -1.035392
2010-06-09 07:23:53 51°26.366 2°49.313 21.5869 0.291176 1.628187 -1.000568
2010-06-09 07:23:58 51°26.384 2°49.307 21.577 0.291072 1.627596 -1.035392
2010-06-09 07:24:03 51°26.402 2°49.302 21.5653 0.291072 1.627596 -1.035392
2010-06-09 07:24:08 51°26.421 2°49.296 21.5853 0.291176 1.628212 -1.035392
2010-06-09 07:24:13 51°26.439 2°49.29 21.5897 0.291072 1.627596 -1.035392
2010-06-09 07:24:18 51°26.457 2°49.284 21.5846 0.291072 1.627622 -1.035392
2010-06-09 07:24:23 51°26.475 2°49.277 21.5893 0.291072 1.627647 -1.000568
2010-06-09 07:24:28 51°26.493 2°49.271 21.5882 0.291072 1.627647 -1.000568
2010-06-09 07:24:33 51°26.511 2°49.265 21.5843 0.291072 1.627647 -1.000568
2010-06-09 07:24:38 51°26.529 2°49.258 21.579 0.291176 1.628314 -1.000568
2010-06-09 07:24:43 51°26.547 2°49.252 21.5981 0.291176 1.62834 -1.035392
2010-06-09 07:24:48 51°26.565 2°49.245 21.5761 0.291072 1.627749 -1.000568
2010-06-09 07:24:53 51°26.583 2°49.239 21.5963 0.291072 1.627774 -1.000568
2010-06-09 07:24:58 51°26.601 2°49.232 21.5831 0.291072 1.627851 -1.035392
2010-06-09 07:25:03 51°26.619 2°49.225 21.5759 0.291072 1.627851 -1.035392
2010-06-09 07:25:08 51°26.637 2°49.219 21.5731 0.291176 1.628365 -1.000568
2010-06-09 07:25:13 51°26.654 2°49.213 21.5969 0.291176 1.628467 -1.000568
2010-06-09 07:25:18 51°26.672 2°49.206 21.5848 0.291176 1.628442 -1.035392
2010-06-09 07:25:23 51°26.69 2°49.199 21.5921 0.291072 1.627825 -1.035392
2010-06-09 07:25:28 51°26.708 2°49.192 21.5883 0.291176 1.628518 -1.000568
2010-06-09 07:25:33 51°26.726 2°49.186 21.597 0.291176 1.628518 -1.000568
2010-06-09 07:25:38 51°26.744 2°49.179 21.5823 0.291176 1.628442 -1.000568
2010-06-09 07:25:43 51°26.762 2°49.173 21.5971 0.291176 1.628518 -1.000568
2010-06-09 07:25:48 51°26.78 2°49.167 21.5935 0.291176 1.628493 -1.000568
2010-06-09 07:25:53 51°26.798 2°49.16 21.595 0.291072 1.627927 -1.000568
2010-06-09 07:25:58 51°26.815 2°49.153 21.5968 0.291176 1.628595 -1.000568
2010-06-09 07:26:03 51°26.833 2°49.147 21.6017 0.291176 1.628595 -1.000568
2010-06-09 07:26:08 51°26.851 2°49.14 21.601 0.291176 1.62862 -1.000568
2010-06-09 07:26:13 51°26.869 2°49.133 21.5971 0.291176 1.62862 -1.035392
2010-06-09 07:26:18 51°26.887 2°49.126 21.5937 0.291176 1.628646 -1.035392
2010-06-09 07:26:23 51°26.905 2°49.12 21.5823 0.291072 1.627953 -1.000568
2010-06-09 07:26:28 51°26.923 2°49.113 21.6024 0.291176 1.628671 -1.000568
2010-06-09 07:26:33 51°26.941 2°49.107 21.5926 0.291176 1.628671 -1.000568
2010-06-09 07:26:38 51°26.959 2°49.1 21.5974 0.291072 1.628029 -1.035392
2010-06-09 07:26:43 51°26.977 2°49.094 21.5856 0.291176 1.628697 -1.035392
2010-06-09 07:26:48 51°26.995 2°49.086 21.5982 0.291072 1.62808 -1.000568
2010-06-09 07:26:53 51°27.013 2°49.08 21.598 0.291072 1.628157 -1.000568
2010-06-09 07:26:58 51°27.031 2°49.073 21.6039 0.291176 1.628748 -1.000568
2010-06-09 07:27:03 51°27.049 2°49.067 21.6012 0.291176 1.628748 -1.000568
2010-06-09 07:27:08 51°27.067 2°49.06 21.6059 0.291072 1.628182 -1.000568
2010-06-09 07:27:13 51°27.085 2°49.054 21.6016 0.291176 1.628824 -1.035392
2010-06-09 07:27:18 51°27.104 2°49.047 21.6087 0.291072 1.628233 -1.035392
2010-06-09 07:27:23 51°27.122 2°49.041 21.5944 0.291072 1.628233 -1.000568
2010-06-09 07:27:28 51°27.14 2°49.034 21.6127 0.291176 1.628901 -1.000568
2010-06-09 07:27:33 51°27.158 2°49.028 21.6072 0.291176 1.628901 -1.000568
2010-06-09 07:27:38 51°27.176 2°49.021 21.6018 0.291072 1.62831 -1.035392
2010-06-09 07:27:43 51°27.194 2°49.015 21.605 0.291176 1.628952 -1.000568
2010-06-09 07:27:48 51°27.212 2°49.008 21.6051 0.291072 1.628335 -0.965744
2010-06-09 07:27:53 51°27.23 2°49.002 21.6094 0.291072 1.628412 -1.035392
2010-06-09 07:27:58 51°27.248 2°48.995 21.6093 0.291072 1.628412 -1.000568
2010-06-09 07:28:03 51°27.267 2°48.988 21.6151 0.291072 1.628412 -1.000568
2010-06-09 07:28:08 51°27.285 2°48.982 21.6045 0.291072 1.628463 -1.000568
2010-06-09 07:28:13 51°27.303 2°48.975 21.6141 0.291176 1.629079 -1.000568
2010-06-09 07:28:18 51°27.321 2°48.968 21.5985 0.291072 1.628463 -1.000568
2010-06-09 07:28:23 51°27.339 2°48.961 21.6047 0.291072 1.628514 -1.035392
2010-06-09 07:28:28 51°27.357 2°48.954 21.6161 0.291176 1.629181 -1.000568
2010-06-09 07:28:33 51°27.376 2°48.947 21.6205 0.291176 1.629181 -1.000568
2010-06-09 07:28:38 51°27.394 2°48.94 21.5968 0.291072 1.628565 -1.000568
2010-06-09 07:28:43 51°27.412 2°48.933 21.6174 0.291176 1.629258 -1.000568
2010-06-09 07:28:47 51°27.427 2°48.928 21.61 0.291072 1.628616 -1.035392
2010-06-09 07:28:53 51°27.448 2°48.92 21.621 0.291176 1.629283 -1.000568
2010-06-09 07:28:58 51°27.466 2°48.913 21.5913 0.291072 1.628667 -1.000568
2010-06-09 07:29:03 51°27.484 2°48.906 21.6249 0.291072 1.628667 -1.000568
2010-06-09 07:29:08 51°27.502 2°48.899 21.6143 0.291072 1.628743 -1.035392
2010-06-09 07:29:13 51°27.52 2°48.892 21.6184 0.291072 1.628769 -1.035392
2010-06-09 07:29:18 51°27.539 2°48.885 21.6169 0.291072 1.628769 -1.000568
2010-06-09 07:29:23 51°27.557 2°48.879 21.6157 0.291072 1.62882 -1.035392
2010-06-09 07:29:28 51°27.575 2°48.872 21.6189 0.291072 1.62882 -1.000568
2010-06-09 07:29:33 51°27.593 2°48.865 21.6158 0.291072 1.62882 -1.000568
2010-06-09 07:29:38 51°27.611 2°48.859 21.6117 0.291072 1.62882 -1.035392
2010-06-09 07:29:43 51°27.629 2°48.853 21.6168 0.291176 1.629487 -1.000568
2010-06-09 07:29:48 51°27.647 2°48.846 21.6234 0.291072 1.628845 -1.000568
2010-06-09 07:29:53 51°27.666 2°48.839 21.6254 0.291072 1.628896 -1.000568
2010-06-09 07:29:58 51°27.684 2°48.833 21.6178 0.291072 1.628922 -1.000568
2010-06-09 07:30:03 51°27.702 2°48.826 21.6132 0.291072 1.628922 -1.000568
2010-06-09 07:30:08 51°27.72 2°48.819 21.6254 0.291072 1.628922 -1.000568
2010-06-09 07:30:13 51°27.738 2°48.812 21.6019 0.291072 1.628973 -0.965744
2010-06-09 07:30:18 51°27.757 2°48.806 21.6145 0.291072 1.628998 -1.035392
2010-06-09 07:30:23 51°27.775 2°48.799 21.6178 0.291176 1.629615 -1.035392
2010-06-09 07:30:27 51°27.789 2°48.794 21.6238 0.291072 1.628973 -1.000568
2010-06-09 07:30:33 51°27.81 2°48.786 21.6061 0.291072 1.628973 -1.000568
2010-06-09 07:30:38 51°27.829 2°48.779 21.6273 0.291072 1.629024 -0.965744
2010-06-09 07:30:43 51°27.847 2°48.773 21.6239 0.291072 1.628998 -1.035392
2010-06-09 07:30:48 51°27.865 2°48.766 21.6292 0.291072 1.629049 -1.000568
2010-06-09 07:30:53 51°27.884 2°48.759 21.6279 0.291072 1.629049 -1.000568
2010-06-09 07:30:58 51°27.902 2°48.753 21.6264 0.291072 1.629075 -1.035392
2010-06-09 07:31:03 51°27.92 2°48.746 21.6269 0.291072 1.629075 -1.035392
2010-06-09 07:31:07 51°27.935 2°48.741 21.6261 0.291072 1.6291 -1.035392
2010-06-09 07:31:13 51°27.957 2°48.733 21.6259 0.291072 1.6291 -1.000568
2010-06-09 07:31:18 51°27.976 2°48.726 21.6248 0.291072 1.629151 -1.000568
2010-06-09 07:31:23 51°27.994 2°48.719 21.6287 0.291072 1.629151 -1.035392
2010-06-09 07:31:28 51°28.013 2°48.712 21.6364 0.291072 1.629126 -1.000568
2010-06-09 07:31:33 51°28.031 2°48.705 21.6292 0.291072 1.629126 -1.000568
2010-06-09 07:31:38 51°28.05 2°48.699 21.6326 0.291072 1.629177 -1.000568
2010-06-09 07:31:43 51°28.068 2°48.692 21.627 0.291072 1.629177 -1.035392
2010-06-09 07:31:48 51°28.086 2°48.686 21.6185 0.291072 1.629228 -1.000568
2010-06-09 07:31:53 51°28.104 2°48.68 21.625 0.291072 1.629253 -1.000568
2010-06-09 07:31:58 51°28.122 2°48.673 21.6395 0.291072 1.629253 -1.035392
2010-06-09 07:32:03 51°28.14 2°48.667 21.6292 0.291072 1.629253 -1.035392
2010-06-09 07:32:07 51°28.155 2°48.662 21.6447 0.291072 1.629253 -1.035392
2010-06-09 07:32:13 51°28.178 2°48.654 21.636 0.291072 1.629279 -1.000568
2010-06-09 07:32:18 51°28.196 2°48.648 21.6295 0.291072 1.62933 -1.035392
2010-06-09 07:32:23 51°28.214 2°48.642 21.6283 0.291072 1.629279 -1.035392
2010-06-09 07:32:28 51°28.233 2°48.635 21.6376 0.291072 1.62933 -1.000568
2010-06-09 07:32:33 51°28.251 2°48.629 21.6147 0.291072 1.62933 -1.000568
2010-06-09 07:32:38 51°28.269 2°48.622 21.6444 0.291072 1.629432 -1.000568
2010-06-09 07:32:43 51°28.288 2°48.616 21.6365 0.290968 1.628739 -1.000568
2010-06-09 07:32:47 51°28.302 2°48.611 21.6404 0.291072 1.629432 -1.035392
2010-06-09 07:32:53 51°28.324 2°48.604 21.6293 0.291072 1.629381 -1.035392
2010-06-09 07:32:58 51°28.343 2°48.597 21.638 0.291072 1.629458 -1.035392
2010-06-09 07:33:03 51°28.361 2°48.591 21.6387 0.291072 1.629458 -1.035392
2010-06-09 07:33:08 51°28.38 2°48.585 21.6363 0.290968 1.628815 -1.000568
2010-06-09 07:33:13 51°28.398 2°48.578 21.6342 0.291072 1.629483 -1.035392
2010-06-09 07:33:18 51°28.417 2°48.572 21.6485 0.291072 1.629458 -1.000568
2010-06-09 07:33:23 51°28.435 2°48.566 21.6159 0.290968 1.628866 -1.035392
2010-06-09 07:33:28 51°28.454 2°48.559 21.6432 0.291072 1.629509 -1.070216
2010-06-09 07:33:33 51°28.473 2°48.553 21.6321 0.291072 1.629509 -1.070216
2010-06-09 07:33:38 51°28.491 2°48.546 21.6356 0.290968 1.628943 -1.000568
2010-06-09 07:33:43 51°28.51 2°48.54 21.6332 0.291072 1.629585 -1.000568
2010-06-09 07:33:48 51°28.528 2°48.534 21.6403 0.290968 1.62902 -1.000568
2010-06-09 07:33:53 51°28.546 2°48.528 21.6459 0.291072 1.629636 -1.035392
2010-06-09 07:33:58 51°28.565 2°48.522 21.6414 0.290968 1.629045 -1.000568
2010-06-09 07:34:03 51°28.583 2°48.515 21.6446 0.290968 1.629045 -1.000568
2010-06-09 07:34:08 51°28.602 2°48.509 21.6432 0.291072 1.629688 -1.035392
2010-06-09 07:34:13 51°28.62 2°48.503 21.6463 0.290968 1.629096 -1.000568
2010-06-09 07:34:18 51°28.639 2°48.497 21.6466 0.290968 1.629147 -1.000568
2010-06-09 07:34:23 51°28.658 2°48.49 21.6399 0.290968 1.629147 -1.035392
2010-06-09 07:34:27 51°28.673 2°48.485 21.6474 0.290968 1.629147 -1.035392
2010-06-09 07:34:33 51°28.695 2°48.478 21.6367 0.290968 1.629147 -1.035392
2010-06-09 07:34:38 51°28.714 2°48.471 21.6529 0.290968 1.629147 -1.000568
2010-06-09 07:34:43 51°28.733 2°48.465 21.652 0.290968 1.629147 -1.000568
2010-06-09 07:34:48 51°28.752 2°48.459 21.6481 0.290968 1.629224 -1.000568
2010-06-09 07:34:53 51°28.77 2°48.453 21.6478 0.290968 1.629224 -1.035392
2010-06-09 07:34:58 51°28.789 2°48.447 21.6504 0.290968 1.629249 -1.000568
2010-06-09 07:35:03 51°28.808 2°48.441 21.6485 0.290968 1.629249 -1.000568
2010-06-09 07:35:07 51°28.823 2°48.436 21.6572 0.290968 1.629275 -1.000568
2010-06-09 07:35:13 51°28.845 2°48.429 21.6327 0.290968 1.6293 -1.000568
2010-06-09 07:35:18 51°28.864 2°48.422 21.6537 0.290968 1.629326 -1.000568
2010-06-09 07:35:23 51°28.883 2°48.416 21.6531 0.290968 1.629147 -1.035392